CPA805 CYYZ-VHHH
Flight info
| Callsign | CPA805 |
|---|---|
| Flight time | N/A |
| Altitude | 33000 |
| Route | CYYZ/23 SEDOG6 BOBSU DCT YVO DCT 50N077W 55N077W 60N077W 65N078W 70N079W 75N078W 80N080W 85N086W DCT DEKMO DCT DEVID M132 HTG M153 SERNA Y520 POLHO G218 TMR B458 DADGA W37 OMBEB R473 WYN W18 NLG W23 ZUH R473 SIERA SIERA7C VHHH/07C |
| Aircraft | A35K/H-V/N |
Departure
| Time | 2026-05-07 22:02 |
|---|---|
| Airport | Toronto Pearson International Airport (CYYZ) |
Arrival
| Time | N/A |
|---|---|
| Airport | Hong Kong International Airport (VHHH) |
| Time | Latitude | Longitude | Altitude | Speed | Heading |
|---|---|---|---|---|---|
| 2026-05-07 21:34 | 43.68309 | -79.62134 | 574 ft | 0 kts | 112° |
| 2026-05-07 21:50 | 43.68317 | -79.62162 | 576 ft | 4 kts | 109° |
| 2026-05-07 21:51 | 43.68326 | -79.62193 | 575 ft | 2 kts | 113° |
| 2026-05-07 21:51 | 43.68333 | -79.62222 | 575 ft | 4 kts | 92° |
| 2026-05-07 21:51 | 43.68331 | -79.62251 | 575 ft | 4 kts | 61° |
| 2026-05-07 21:51 | 43.68316 | -79.62281 | 574 ft | 3 kts | 52° |
| 2026-05-07 21:52 | 43.68314 | -79.62285 | 573 ft | 5 kts | 52° |
| 2026-05-07 21:55 | 43.68319 | -79.62275 | 575 ft | 4 kts | 51° |
| 2026-05-07 21:55 | 43.68350 | -79.62227 | 576 ft | 8 kts | 47° |
| 2026-05-07 21:55 | 43.68396 | -79.62196 | 574 ft | 7 kts | 355° |
| 2026-05-07 21:56 | 43.68420 | -79.62237 | 576 ft | 5 kts | 280° |
| 2026-05-07 21:56 | 43.68404 | -79.62282 | 575 ft | 7 kts | 231° |
| 2026-05-07 21:56 | 43.68363 | -79.62347 | 575 ft | 11 kts | 228° |
| 2026-05-07 21:56 | 43.68302 | -79.62388 | 573 ft | 10 kts | 192° |
| 2026-05-07 21:57 | 43.68261 | -79.62442 | 574 ft | 7 kts | 264° |
| 2026-05-07 21:57 | 43.68285 | -79.62493 | 575 ft | 8 kts | 313° |
| 2026-05-07 21:57 | 43.68338 | -79.62565 | 574 ft | 13 kts | 316° |
| 2026-05-07 21:57 | 43.68408 | -79.62659 | 570 ft | 14 kts | 316° |
| 2026-05-07 21:58 | 43.68477 | -79.62751 | 575 ft | 14 kts | 316° |
| 2026-05-07 21:58 | 43.68547 | -79.62832 | 575 ft | 12 kts | 314° |
| 2026-05-07 21:58 | 43.68607 | -79.62917 | 573 ft | 12 kts | 315° |
| 2026-05-07 21:58 | 43.68668 | -79.62997 | 574 ft | 13 kts | 318° |
| 2026-05-07 21:59 | 43.68738 | -79.63086 | 573 ft | 14 kts | 316° |
| 2026-05-07 21:59 | 43.68815 | -79.63187 | 574 ft | 16 kts | 316° |
| 2026-05-07 21:59 | 43.68899 | -79.63298 | 573 ft | 17 kts | 316° |
| 2026-05-07 21:59 | 43.68986 | -79.63411 | 573 ft | 17 kts | 316° |
| 2026-05-07 22:00 | 43.69053 | -79.63499 | 577 ft | 7 kts | 316° |
| 2026-05-07 22:00 | 43.69086 | -79.63529 | 575 ft | 5 kts | 346° |
| 2026-05-07 22:00 | 43.69125 | -79.63512 | 573 ft | 8 kts | 32° |
| 2026-05-07 22:00 | 43.69178 | -79.63448 | 575 ft | 13 kts | 38° |
| 2026-05-07 22:01 | 43.69267 | -79.63417 | 574 ft | 14 kts | 3° |
| 2026-05-07 22:01 | 43.69356 | -79.63430 | 575 ft | 12 kts | 333° |
| 2026-05-07 22:01 | 43.69408 | -79.63497 | 574 ft | 8 kts | 292° |
| 2026-05-07 22:01 | 43.69385 | -79.63555 | 573 ft | 8 kts | 226° |
| 2026-05-07 22:02 | 43.69276 | -79.63711 | 574 ft | 51 kts | 226° |
| 2026-05-07 22:02 | 43.68869 | -79.64300 | 576 ft | 116 kts | 226° |
| 2026-05-07 22:02 | 43.68173 | -79.65306 | 593 ft | 170 kts | 227° |
| 2026-05-07 22:02 | 43.67346 | -79.66469 | 1317 ft | 168 kts | 229° |
| 2026-05-07 22:03 | 43.66555 | -79.67679 | 2029 ft | 172 kts | 233° |
| 2026-05-07 22:03 | 43.65791 | -79.68955 | 2340 ft | 180 kts | 234° |
| 2026-05-07 22:03 | 43.64980 | -79.70352 | 2542 ft | 193 kts | 235° |
| 2026-05-07 22:03 | 43.64108 | -79.71871 | 2724 ft | 208 kts | 235° |
| 2026-05-07 22:04 | 43.63182 | -79.73497 | 2933 ft | 223 kts | 235° |
| 2026-05-07 22:04 | 43.62190 | -79.75248 | 3112 ft | 239 kts | 235° |
| 2026-05-07 22:04 | 43.61158 | -79.77083 | 3488 ft | 247 kts | 235° |
| 2026-05-07 22:04 | 43.60101 | -79.78978 | 4007 ft | 250 kts | 235° |
| 2026-05-07 22:05 | 43.59123 | -79.80985 | 4488 ft | 251 kts | 245° |
| 2026-05-07 22:05 | 43.58598 | -79.83268 | 5024 ft | 250 kts | 265° |
| 2026-05-07 22:05 | 43.58777 | -79.85617 | 5518 ft | 251 kts | 290° |
| 2026-05-07 22:05 | 43.59753 | -79.87611 | 6039 ft | 257 kts | 318° |
| 2026-05-07 22:06 | 43.61408 | -79.88618 | 6535 ft | 266 kts | 349° |
| 2026-05-07 22:06 | 43.63258 | -79.88517 | 7023 ft | 274 kts | 6° |
| 2026-05-07 22:06 | 43.65152 | -79.88023 | 7582 ft | 277 kts | 6° |
| 2026-05-07 22:06 | 43.67070 | -79.87562 | 8117 ft | 280 kts | 5° |
| 2026-05-07 22:07 | 43.69008 | -79.87158 | 8660 ft | 283 kts | 3° |
| 2026-05-07 22:07 | 43.70944 | -79.86793 | 9201 ft | 285 kts | 2° |
| 2026-05-07 22:07 | 43.72938 | -79.86432 | 9761 ft | 288 kts | 2° |
| 2026-05-07 22:07 | 43.74910 | -79.85721 | 10188 ft | 301 kts | 20° |
| 2026-05-07 22:08 | 43.76738 | -79.84139 | 10447 ft | 318 kts | 33° |
| 2026-05-07 22:08 | 43.78509 | -79.82248 | 10692 ft | 332 kts | 34° |
| 2026-05-07 22:08 | 43.80375 | -79.80235 | 10958 ft | 345 kts | 34° |
| 2026-05-07 22:08 | 43.82318 | -79.78160 | 11213 ft | 358 kts | 34° |
| 2026-05-07 22:09 | 43.84309 | -79.76047 | 11468 ft | 370 kts | 34° |
| 2026-05-07 22:09 | 43.86396 | -79.73847 | 11725 ft | 382 kts | 34° |
| 2026-05-07 22:09 | 43.88546 | -79.71588 | 11993 ft | 393 kts | 34° |
| 2026-05-07 22:09 | 43.90746 | -79.69272 | 12408 ft | 400 kts | 34° |
| 2026-05-07 22:10 | 43.92981 | -79.66917 | 12902 ft | 404 kts | 34° |
| 2026-05-07 22:10 | 43.95232 | -79.64544 | 13402 ft | 408 kts | 34° |
| 2026-05-07 22:10 | 43.97480 | -79.62175 | 13879 ft | 412 kts | 34° |
| 2026-05-07 22:10 | 43.99783 | -79.59778 | 14326 ft | 414 kts | 32° |
| 2026-05-07 22:11 | 44.02301 | -79.57853 | 14782 ft | 411 kts | 18° |
| 2026-05-07 22:11 | 44.04995 | -79.56470 | 15253 ft | 413 kts | 15° |
| 2026-05-07 22:11 | 44.07694 | -79.55180 | 15708 ft | 416 kts | 15° |
| 2026-05-07 22:11 | 44.10446 | -79.53863 | 16178 ft | 419 kts | 15° |
| 2026-05-07 22:12 | 44.13219 | -79.52527 | 16673 ft | 421 kts | 15° |
| 2026-05-07 22:12 | 44.15935 | -79.51211 | 17155 ft | 424 kts | 15° |
| 2026-05-07 22:12 | 44.18563 | -79.49936 | 17613 ft | 428 kts | 15° |
| 2026-05-07 22:12 | 44.21386 | -79.48562 | 18115 ft | 431 kts | 15° |
| 2026-05-07 22:13 | 44.24239 | -79.47171 | 18557 ft | 434 kts | 15° |
| 2026-05-07 22:13 | 44.27108 | -79.45771 | 18980 ft | 438 kts | 15° |
| 2026-05-07 22:13 | 44.29997 | -79.44358 | 19416 ft | 441 kts | 15° |
| 2026-05-07 22:13 | 44.32902 | -79.42936 | 19846 ft | 444 kts | 15° |
| 2026-05-07 22:14 | 44.35794 | -79.41518 | 20273 ft | 446 kts | 15° |
| 2026-05-07 22:14 | 44.38706 | -79.39879 | 20669 ft | 453 kts | 22° |
| 2026-05-07 22:14 | 44.41491 | -79.37731 | 21114 ft | 458 kts | 27° |
| 2026-05-07 22:14 | 44.44212 | -79.35448 | 21545 ft | 461 kts | 27° |
| 2026-05-07 22:15 | 44.46972 | -79.33110 | 21953 ft | 464 kts | 27° |
| 2026-05-07 22:15 | 44.49752 | -79.30757 | 22355 ft | 467 kts | 27° |
| 2026-05-07 22:15 | 44.52547 | -79.28394 | 22800 ft | 470 kts | 27° |
| 2026-05-07 22:15 | 44.55359 | -79.26015 | 23223 ft | 472 kts | 27° |
| 2026-05-07 22:16 | 44.58149 | -79.23655 | 23603 ft | 475 kts | 27° |
| 2026-05-07 22:16 | 44.61007 | -79.21236 | 23919 ft | 479 kts | 27° |
| 2026-05-07 22:16 | 44.63874 | -79.18806 | 24252 ft | 481 kts | 27° |
| 2026-05-07 22:16 | 44.66718 | -79.16393 | 24587 ft | 484 kts | 27° |
| 2026-05-07 22:17 | 44.69611 | -79.13936 | 24911 ft | 487 kts | 27° |
| 2026-05-07 22:17 | 44.72533 | -79.11451 | 25225 ft | 491 kts | 27° |
| 2026-05-07 22:17 | 44.75464 | -79.08957 | 25545 ft | 493 kts | 27° |
| 2026-05-07 22:17 | 44.78421 | -79.06435 | 25870 ft | 496 kts | 27° |
| 2026-05-07 22:18 | 44.81352 | -79.03935 | 26171 ft | 499 kts | 27° |
| 2026-05-07 22:18 | 44.87324 | -78.98832 | 26783 ft | 505 kts | 27° |
| 2026-05-07 22:18 | 44.90356 | -78.96231 | 27102 ft | 508 kts | 28° |
| 2026-05-07 22:19 | 44.93369 | -78.93600 | 27388 ft | 511 kts | 28° |
| 2026-05-07 22:19 | 44.96369 | -78.90966 | 27685 ft | 514 kts | 28° |
| 2026-05-07 22:19 | 44.99426 | -78.88282 | 27992 ft | 516 kts | 28° |
| 2026-05-07 22:19 | 45.02493 | -78.85589 | 28282 ft | 518 kts | 28° |
| 2026-05-07 22:20 | 45.05534 | -78.82918 | 28547 ft | 521 kts | 28° |
| 2026-05-07 22:20 | 45.08627 | -78.80200 | 28797 ft | 524 kts | 28° |
| 2026-05-07 22:20 | 45.11738 | -78.77463 | 29067 ft | 526 kts | 28° |
| 2026-05-07 22:20 | 45.14865 | -78.74708 | 29370 ft | 527 kts | 28° |
| 2026-05-07 22:21 | 45.17954 | -78.71983 | 29748 ft | 527 kts | 28° |
| 2026-05-07 22:21 | 45.21069 | -78.69231 | 30052 ft | 527 kts | 28° |
| 2026-05-07 22:21 | 45.24191 | -78.66469 | 30335 ft | 527 kts | 28° |
| 2026-05-07 22:21 | 45.27276 | -78.63738 | 30594 ft | 527 kts | 28° |
| 2026-05-07 22:22 | 45.30392 | -78.60975 | 30828 ft | 528 kts | 28° |
| 2026-05-07 22:22 | 45.33518 | -78.58200 | 31060 ft | 528 kts | 28° |
| 2026-05-07 22:22 | 45.36649 | -78.55417 | 31295 ft | 529 kts | 28° |
| 2026-05-07 22:22 | 45.39740 | -78.52666 | 31533 ft | 529 kts | 28° |
| 2026-05-07 22:23 | 45.42861 | -78.49883 | 31740 ft | 529 kts | 28° |
| 2026-05-07 22:23 | 45.45993 | -78.47089 | 31938 ft | 530 kts | 28° |
| 2026-05-07 22:23 | 45.49097 | -78.44328 | 32149 ft | 530 kts | 27° |
| 2026-05-07 22:23 | 45.52357 | -78.41914 | 32339 ft | 524 kts | 17° |
| 2026-05-07 22:24 | 45.55804 | -78.40333 | 32511 ft | 516 kts | 6° |
| 2026-05-07 22:24 | 45.59329 | -78.39367 | 32707 ft | 514 kts | 4° |
| 2026-05-07 22:24 | 45.62864 | -78.38563 | 32870 ft | 514 kts | 2° |
| 2026-05-07 22:25 | 45.69969 | -78.37126 | 32893 ft | 520 kts | 2° |
| 2026-05-07 22:25 | 45.77150 | -78.35670 | 32896 ft | 520 kts | 2° |
| 2026-05-07 22:26 | 45.84295 | -78.34167 | 32891 ft | 520 kts | 3° |
| 2026-05-07 22:26 | 45.91483 | -78.32628 | 32895 ft | 521 kts | 3° |
| 2026-05-07 22:27 | 45.98631 | -78.31091 | 32893 ft | 521 kts | 3° |
| 2026-05-07 22:27 | 46.05824 | -78.29542 | 32896 ft | 522 kts | 3° |
| 2026-05-07 22:28 | 46.12974 | -78.28000 | 32892 ft | 522 kts | 3° |
| 2026-05-07 22:28 | 46.20186 | -78.26441 | 32893 ft | 522 kts | 3° |
| 2026-05-07 22:29 | 46.27349 | -78.24887 | 32890 ft | 523 kts | 3° |
| 2026-05-07 22:29 | 46.34586 | -78.23314 | 32891 ft | 523 kts | 3° |
| 2026-05-07 22:30 | 46.41742 | -78.21755 | 32888 ft | 523 kts | 3° |
| 2026-05-07 22:30 | 46.48965 | -78.20175 | 32890 ft | 523 kts | 3° |
| 2026-05-07 22:31 | 46.56125 | -78.18606 | 32884 ft | 523 kts | 3° |
| 2026-05-07 22:31 | 46.63358 | -78.17016 | 32890 ft | 523 kts | 3° |
| 2026-05-07 22:32 | 46.70528 | -78.15437 | 32881 ft | 523 kts | 3° |
| 2026-05-07 22:32 | 46.77740 | -78.13843 | 32884 ft | 523 kts | 3° |
| 2026-05-07 22:33 | 46.84903 | -78.12257 | 32878 ft | 523 kts | 4° |
| 2026-05-07 22:33 | 46.92122 | -78.10654 | 32881 ft | 523 kts | 4° |
| 2026-05-07 22:34 | 46.99289 | -78.09057 | 32878 ft | 523 kts | 4° |
| 2026-05-07 22:34 | 47.06460 | -78.07456 | 32877 ft | 523 kts | 4° |
| 2026-05-07 22:35 | 47.12453 | -78.06114 | 32870 ft | 522 kts | 4° |
| 2026-05-07 22:35 | 47.20819 | -78.04236 | 32873 ft | 522 kts | 4° |
| 2026-05-07 22:36 | 47.26828 | -78.02884 | 32863 ft | 522 kts | 4° |
| 2026-05-07 22:36 | 47.33983 | -78.01269 | 32869 ft | 522 kts | 4° |
| 2026-05-07 22:37 | 47.41168 | -77.99643 | 32862 ft | 521 kts | 4° |
| 2026-05-07 22:37 | 47.48360 | -77.98011 | 32868 ft | 521 kts | 4° |
| 2026-05-07 22:38 | 47.55507 | -77.96384 | 32862 ft | 521 kts | 4° |
| 2026-05-07 22:38 | 47.62675 | -77.94748 | 32863 ft | 521 kts | 4° |
| 2026-05-07 22:39 | 47.69829 | -77.93111 | 32850 ft | 520 kts | 4° |
| 2026-05-07 22:39 | 47.76968 | -77.91474 | 32848 ft | 520 kts | 4° |
| 2026-05-07 22:40 | 47.84147 | -77.89821 | 32826 ft | 520 kts | 5° |
| 2026-05-07 22:40 | 47.91260 | -77.88180 | 32821 ft | 520 kts | 5° |
| 2026-05-07 22:41 | 47.98437 | -77.86519 | 32799 ft | 520 kts | 5° |
| 2026-05-07 22:41 | 48.05561 | -77.84867 | 32804 ft | 520 kts | 5° |
| 2026-05-07 22:42 | 48.12736 | -77.83197 | 32801 ft | 520 kts | 5° |
| 2026-05-07 22:42 | 48.19815 | -77.81033 | 32814 ft | 523 kts | 11° |
| 2026-05-07 22:43 | 48.26855 | -77.78086 | 32823 ft | 524 kts | 12° |
| 2026-05-07 22:43 | 48.33833 | -77.75033 | 32841 ft | 524 kts | 13° |
| 2026-05-07 22:44 | 48.40870 | -77.71936 | 32847 ft | 524 kts | 13° |
| 2026-05-07 22:44 | 48.44338 | -77.70415 | 33052 ft | 521 kts | 14° |
| 2026-05-07 22:44 | 48.47792 | -77.68900 | 32860 ft | 509 kts | 14° |
| 2026-05-07 22:45 | 48.54483 | -77.65955 | 32849 ft | 500 kts | 14° |
| 2026-05-07 22:45 | 48.61171 | -77.63013 | 32848 ft | 501 kts | 14° |
| 2026-05-07 22:46 | 48.67851 | -77.60067 | 32847 ft | 501 kts | 14° |
| 2026-05-07 22:46 | 48.74563 | -77.57097 | 32848 ft | 501 kts | 14° |
| 2026-05-07 22:47 | 48.81252 | -77.54128 | 32847 ft | 501 kts | 14° |
| 2026-05-07 22:47 | 48.87914 | -77.51163 | 32840 ft | 501 kts | 14° |
| 2026-05-07 22:48 | 48.94609 | -77.48176 | 32838 ft | 501 kts | 14° |
| 2026-05-07 22:48 | 49.01278 | -77.45191 | 32838 ft | 501 kts | 14° |
| 2026-05-07 22:49 | 49.07989 | -77.42180 | 32831 ft | 501 kts | 14° |
| 2026-05-07 22:49 | 49.14643 | -77.39185 | 32833 ft | 501 kts | 14° |
| 2026-05-07 22:50 | 49.21345 | -77.36160 | 32827 ft | 501 kts | 14° |
| 2026-05-07 22:50 | 49.27987 | -77.33154 | 32831 ft | 501 kts | 14° |
| 2026-05-07 22:51 | 49.34694 | -77.30111 | 32829 ft | 501 kts | 14° |
| 2026-05-07 22:51 | 49.41337 | -77.27087 | 32826 ft | 501 kts | 14° |
| 2026-05-07 22:52 | 49.48047 | -77.24024 | 32830 ft | 501 kts | 14° |
| 2026-05-07 22:52 | 49.54690 | -77.20982 | 32823 ft | 501 kts | 14° |
| 2026-05-07 22:53 | 49.61376 | -77.17913 | 32827 ft | 501 kts | 14° |
| 2026-05-07 22:53 | 49.68029 | -77.14850 | 32829 ft | 501 kts | 14° |
| 2026-05-07 22:54 | 49.74733 | -77.11755 | 32823 ft | 501 kts | 14° |
| 2026-05-07 22:54 | 49.81380 | -77.08678 | 32824 ft | 501 kts | 14° |
| 2026-05-07 22:55 | 49.88079 | -77.05567 | 32824 ft | 501 kts | 14° |
| 2026-05-07 22:55 | 49.94728 | -77.02471 | 32824 ft | 501 kts | 14° |
| 2026-05-07 22:56 | 50.01541 | -77.00232 | 32823 ft | 496 kts | 1° |
| 2026-05-07 22:56 | 50.08428 | -76.99919 | 32818 ft | 496 kts | 358° |
| 2026-05-07 22:57 | 50.15292 | -76.99927 | 32820 ft | 496 kts | 358° |
| 2026-05-07 22:57 | 50.22218 | -76.99978 | 32819 ft | 496 kts | 358° |
| 2026-05-07 22:58 | 50.29086 | -77.00000 | 32816 ft | 496 kts | 358° |
| 2026-05-07 22:58 | 50.36010 | -77.00003 | 32813 ft | 496 kts | 358° |
| 2026-05-07 22:59 | 50.42874 | -77.00000 | 32819 ft | 496 kts | 358° |
| 2026-05-07 22:59 | 50.49804 | -76.99999 | 32815 ft | 496 kts | 358° |
| 2026-05-07 23:00 | 50.56700 | -76.99998 | 32814 ft | 497 kts | 358° |
| 2026-05-07 23:00 | 50.63624 | -76.99998 | 32814 ft | 497 kts | 358° |
| 2026-05-07 23:01 | 50.70510 | -76.99999 | 32807 ft | 497 kts | 358° |
| 2026-05-07 23:01 | 50.77433 | -76.99999 | 32809 ft | 497 kts | 358° |
| 2026-05-07 23:02 | 50.84330 | -76.99999 | 32811 ft | 497 kts | 358° |
| 2026-05-07 23:02 | 50.91256 | -76.99999 | 32812 ft | 497 kts | 358° |
| 2026-05-07 23:03 | 50.98145 | -76.99999 | 32815 ft | 497 kts | 358° |
| 2026-05-07 23:03 | 51.05077 | -76.99999 | 32819 ft | 497 kts | 358° |
| 2026-05-07 23:04 | 51.11975 | -76.99999 | 32811 ft | 497 kts | 358° |
| 2026-05-07 23:04 | 51.18889 | -76.99999 | 32809 ft | 497 kts | 358° |
| 2026-05-07 23:05 | 51.25816 | -76.99998 | 32809 ft | 497 kts | 358° |
| 2026-05-07 23:05 | 51.32709 | -76.99998 | 32815 ft | 497 kts | 358° |
| 2026-05-07 23:06 | 51.39648 | -76.99998 | 32820 ft | 497 kts | 358° |
| 2026-05-07 23:06 | 51.46551 | -76.99998 | 32816 ft | 497 kts | 358° |
| 2026-05-07 23:07 | 51.53484 | -76.99998 | 32827 ft | 497 kts | 358° |
| 2026-05-07 23:07 | 51.60373 | -76.99998 | 32810 ft | 497 kts | 358° |
| 2026-05-07 23:08 | 51.67303 | -76.99998 | 32808 ft | 497 kts | 358° |
| 2026-05-07 23:08 | 51.74236 | -76.99998 | 32808 ft | 497 kts | 358° |
| 2026-05-07 23:09 | 51.81128 | -76.99999 | 32804 ft | 497 kts | 358° |
| 2026-05-07 23:09 | 51.88073 | -76.99999 | 32803 ft | 497 kts | 358° |
| 2026-05-07 23:10 | 51.94960 | -76.99998 | 32801 ft | 498 kts | 358° |
| 2026-05-07 23:10 | 52.01929 | -76.99998 | 32802 ft | 498 kts | 358° |
| 2026-05-07 23:11 | 52.08848 | -76.99999 | 32803 ft | 498 kts | 358° |
| 2026-05-07 23:11 | 52.15746 | -76.99999 | 32801 ft | 498 kts | 358° |
| 2026-05-07 23:12 | 52.22682 | -76.99998 | 32803 ft | 498 kts | 358° |
| 2026-05-07 23:12 | 52.29628 | -76.99998 | 32802 ft | 498 kts | 359° |
| 2026-05-07 23:13 | 52.36551 | -76.99998 | 32799 ft | 499 kts | 359° |
| 2026-05-07 23:13 | 52.43472 | -76.99998 | 32804 ft | 499 kts | 359° |
| 2026-05-07 23:14 | 52.50446 | -76.99998 | 32804 ft | 499 kts | 359° |
| 2026-05-07 23:14 | 52.57362 | -76.99998 | 32803 ft | 499 kts | 359° |
| 2026-05-07 23:15 | 52.64331 | -76.99998 | 32805 ft | 499 kts | 359° |
| 2026-05-07 23:15 | 52.71261 | -76.99998 | 32809 ft | 499 kts | 359° |
| 2026-05-07 23:16 | 52.78229 | -76.99999 | 32807 ft | 500 kts | 359° |
| 2026-05-07 23:16 | 52.85165 | -76.99999 | 32807 ft | 500 kts | 359° |
| 2026-05-07 23:17 | 52.92112 | -76.99999 | 32809 ft | 500 kts | 359° |
| 2026-05-07 23:17 | 52.99101 | -77.00000 | 32811 ft | 500 kts | 359° |
| 2026-05-07 23:18 | 53.06044 | -76.99999 | 32810 ft | 501 kts | 359° |
| 2026-05-07 23:18 | 53.13001 | -77.00000 | 32811 ft | 501 kts | 359° |
| 2026-05-07 23:19 | 53.19978 | -77.00001 | 32809 ft | 501 kts | 359° |
| 2026-05-07 23:19 | 53.26924 | -77.00001 | 32813 ft | 501 kts | 359° |
| 2026-05-07 23:20 | 53.33919 | -77.00000 | 32814 ft | 502 kts | 359° |
| 2026-05-07 23:20 | 53.40906 | -77.00000 | 32813 ft | 502 kts | 359° |
| 2026-05-07 23:21 | 53.47902 | -77.00000 | 32817 ft | 502 kts | 359° |
| 2026-05-07 23:21 | 53.54779 | -77.00001 | 32818 ft | 502 kts | 359° |
| 2026-05-07 23:22 | 53.61734 | -77.00001 | 32820 ft | 502 kts | 359° |
| 2026-05-07 23:22 | 53.68742 | -77.00001 | 32821 ft | 502 kts | 359° |
| 2026-05-07 23:23 | 53.75707 | -77.00001 | 32819 ft | 502 kts | 359° |
| 2026-05-07 23:23 | 53.82711 | -77.00000 | 32816 ft | 503 kts | 359° |
| 2026-05-07 23:24 | 53.88550 | -77.00000 | 32816 ft | 503 kts | 359° |
| 2026-05-07 23:24 | 53.96723 | -77.00001 | 32814 ft | 504 kts | 359° |
| 2026-05-07 23:25 | 54.03710 | -77.00001 | 32815 ft | 504 kts | 359° |
| 2026-05-07 23:25 | 54.09571 | -77.00001 | 32810 ft | 504 kts | 359° |
| 2026-05-07 23:26 | 54.16595 | -77.00002 | 32809 ft | 504 kts | 359° |
| 2026-05-07 23:26 | 54.23588 | -77.00002 | 32805 ft | 504 kts | 360° |
| 2026-05-07 23:27 | 54.34115 | -77.00001 | 32802 ft | 504 kts | 360° |
| 2026-05-07 23:27 | 54.41148 | -77.00002 | 32803 ft | 504 kts | 360° |
| 2026-05-07 23:28 | 54.48125 | -77.00001 | 32801 ft | 504 kts | 360° |
| 2026-05-07 23:28 | 54.55157 | -77.00001 | 32802 ft | 504 kts | 0° |
| 2026-05-07 23:29 | 54.62191 | -77.00001 | 32801 ft | 504 kts | 0° |
| 2026-05-07 23:29 | 54.69171 | -77.00001 | 32799 ft | 504 kts | 0° |
| 2026-05-07 23:30 | 54.76195 | -77.00000 | 32798 ft | 504 kts | 0° |
| 2026-05-07 23:30 | 54.83223 | -77.00001 | 32799 ft | 504 kts | 0° |
| 2026-05-07 23:31 | 54.90208 | -77.00001 | 32797 ft | 504 kts | 0° |
| 2026-05-07 23:31 | 54.97225 | -77.00000 | 32799 ft | 504 kts | 0° |
| 2026-05-07 23:32 | 55.04220 | -77.00001 | 32795 ft | 504 kts | 0° |
| 2026-05-07 23:32 | 55.11212 | -77.00001 | 32795 ft | 504 kts | 0° |
| 2026-05-07 23:33 | 55.18254 | -77.00002 | 32799 ft | 504 kts | 0° |
| 2026-05-07 23:33 | 55.25230 | -77.00003 | 32794 ft | 504 kts | 0° |
| 2026-05-07 23:34 | 55.32254 | -77.00003 | 32797 ft | 504 kts | 0° |
| 2026-05-07 23:34 | 55.39281 | -77.00002 | 32797 ft | 504 kts | 0° |
| 2026-05-07 23:35 | 55.46267 | -77.00001 | 32795 ft | 503 kts | 0° |
| 2026-05-07 23:35 | 55.53288 | -77.00001 | 32792 ft | 503 kts | 0° |
| 2026-05-07 23:36 | 55.60251 | -77.00001 | 32789 ft | 503 kts | 0° |
| 2026-05-07 23:36 | 55.67263 | -77.00001 | 32789 ft | 504 kts | 0° |
| 2026-05-07 23:37 | 55.74288 | -77.00001 | 32792 ft | 503 kts | 0° |
| 2026-05-07 23:37 | 55.81303 | -77.00002 | 32788 ft | 504 kts | 0° |
| 2026-05-07 23:38 | 55.88316 | -77.00001 | 32784 ft | 504 kts | 0° |
| 2026-05-07 23:38 | 55.95319 | -77.00002 | 32782 ft | 504 kts | 0° |
| 2026-05-07 23:39 | 56.02300 | -77.00001 | 32782 ft | 504 kts | 0° |
| 2026-05-07 23:39 | 56.09338 | -77.00002 | 32775 ft | 504 kts | 0° |
| 2026-05-07 23:40 | 56.16307 | -77.00002 | 32772 ft | 504 kts | 0° |
| 2026-05-07 23:40 | 56.23342 | -77.00002 | 32772 ft | 504 kts | 0° |
| 2026-05-07 23:41 | 56.30355 | -77.00002 | 32769 ft | 504 kts | 0° |
| 2026-05-07 23:41 | 56.37377 | -77.00002 | 32766 ft | 504 kts | 0° |
| 2026-05-07 23:42 | 56.44375 | -77.00001 | 32763 ft | 505 kts | 0° |
| 2026-05-07 23:42 | 56.51363 | -77.00002 | 32764 ft | 505 kts | 0° |
| 2026-05-07 23:43 | 56.58415 | -77.00002 | 32757 ft | 505 kts | 0° |
| 2026-05-07 23:43 | 56.65427 | -77.00001 | 32759 ft | 506 kts | 0° |
| 2026-05-07 23:44 | 56.72475 | -77.00000 | 32754 ft | 506 kts | 0° |
| 2026-05-07 23:44 | 56.79532 | -77.00000 | 32756 ft | 506 kts | 0° |
| 2026-05-07 23:45 | 56.86543 | -77.00000 | 32749 ft | 506 kts | 0° |
| 2026-05-07 23:45 | 56.93610 | -77.00000 | 32748 ft | 507 kts | 0° |
| 2026-05-07 23:46 | 57.00639 | -77.00000 | 32743 ft | 507 kts | 0° |
| 2026-05-07 23:46 | 57.07705 | -77.00000 | 32740 ft | 508 kts | 360° |
| 2026-05-07 23:47 | 57.14757 | -76.99999 | 32736 ft | 508 kts | 360° |
| 2026-05-07 23:47 | 57.21849 | -76.99999 | 32734 ft | 509 kts | 360° |
| 2026-05-07 23:48 | 57.28904 | -77.00000 | 32734 ft | 509 kts | 360° |
| 2026-05-07 23:48 | 57.36021 | -77.00000 | 32729 ft | 509 kts | 360° |
| 2026-05-07 23:49 | 57.43080 | -76.99999 | 32725 ft | 510 kts | 360° |
| 2026-05-07 23:49 | 57.50161 | -76.99999 | 32720 ft | 510 kts | 360° |
| 2026-05-07 23:50 | 57.57288 | -76.99999 | 32721 ft | 511 kts | 360° |
| 2026-05-07 23:50 | 57.64365 | -76.99999 | 32717 ft | 511 kts | 359° |
| 2026-05-07 23:51 | 57.71480 | -76.99999 | 32711 ft | 511 kts | 359° |
| 2026-05-07 23:51 | 57.78573 | -76.99999 | 32709 ft | 512 kts | 359° |
| 2026-05-07 23:52 | 57.85702 | -76.99997 | 32708 ft | 512 kts | 359° |
| 2026-05-07 23:52 | 57.92862 | -76.99998 | 32702 ft | 512 kts | 359° |
| 2026-05-07 23:53 | 57.99956 | -76.99998 | 32699 ft | 512 kts | 359° |
| 2026-05-07 23:53 | 58.07098 | -76.99998 | 32698 ft | 513 kts | 359° |
| 2026-05-07 23:54 | 58.14200 | -76.99998 | 32696 ft | 512 kts | 359° |
| 2026-05-07 23:54 | 58.21356 | -76.99997 | 32690 ft | 512 kts | 359° |
| 2026-05-07 23:55 | 58.28456 | -76.99997 | 32688 ft | 512 kts | 359° |
| 2026-05-07 23:55 | 58.35611 | -76.99996 | 32682 ft | 512 kts | 359° |
| 2026-05-07 23:56 | 58.42717 | -76.99996 | 32677 ft | 512 kts | 359° |
| 2026-05-07 23:56 | 58.49867 | -76.99996 | 32672 ft | 513 kts | 359° |
| 2026-05-07 23:57 | 58.56976 | -76.99996 | 32673 ft | 513 kts | 359° |
| 2026-05-07 23:57 | 58.64126 | -76.99996 | 32672 ft | 513 kts | 359° |
| 2026-05-07 23:58 | 58.71239 | -76.99995 | 32664 ft | 513 kts | 359° |
| 2026-05-07 23:58 | 58.78402 | -76.99995 | 32664 ft | 514 kts | 359° |
| 2026-05-07 23:59 | 58.85574 | -76.99996 | 32658 ft | 514 kts | 359° |
| 2026-05-07 23:59 | 58.92701 | -76.99997 | 32653 ft | 514 kts | 359° |
| 2026-05-08 00:00 | 58.99870 | -76.99997 | 32651 ft | 514 kts | 359° |
| 2026-05-08 00:00 | 59.07010 | -76.99996 | 32648 ft | 515 kts | 359° |
| 2026-05-08 00:01 | 59.14209 | -76.99996 | 32644 ft | 515 kts | 359° |
| 2026-05-08 00:01 | 59.21354 | -76.99997 | 32642 ft | 515 kts | 360° |
| 2026-05-08 00:02 | 59.28529 | -76.99997 | 32655 ft | 517 kts | 360° |
| 2026-05-08 00:02 | 59.32086 | -76.99998 | 32903 ft | 516 kts | 360° |
| 2026-05-08 00:02 | 59.35683 | -76.99999 | 33194 ft | 514 kts | 0° |
| 2026-05-08 00:03 | 59.39269 | -77.00000 | 33420 ft | 514 kts | 0° |
| 2026-05-08 00:03 | 59.42856 | -77.00000 | 33623 ft | 514 kts | 0° |
| 2026-05-08 00:03 | 59.46399 | -77.00000 | 33783 ft | 514 kts | 0° |
| 2026-05-08 00:03 | 59.49991 | -77.00000 | 33930 ft | 514 kts | 0° |
| 2026-05-08 00:04 | 59.53578 | -77.00000 | 34058 ft | 515 kts | 0° |
| 2026-05-08 00:04 | 59.57173 | -77.00000 | 34201 ft | 515 kts | 0° |
| 2026-05-08 00:04 | 59.60761 | -77.00000 | 34328 ft | 515 kts | 0° |
| 2026-05-08 00:04 | 59.64350 | -76.99999 | 34459 ft | 516 kts | 0° |
| 2026-05-08 00:05 | 59.67897 | -76.99999 | 34581 ft | 516 kts | 0° |
| 2026-05-08 00:05 | 59.71500 | -76.99999 | 34621 ft | 517 kts | 0° |
| 2026-05-08 00:05 | 59.78717 | -76.99999 | 34618 ft | 517 kts | 0° |
| 2026-05-08 00:06 | 59.85866 | -76.99999 | 34610 ft | 517 kts | 1° |
| 2026-05-08 00:06 | 59.93089 | -77.00001 | 34606 ft | 517 kts | 0° |
| 2026-05-08 00:07 | 60.00258 | -77.00001 | 34607 ft | 517 kts | 1° |
| 2026-05-08 00:07 | 60.07465 | -77.00754 | 34607 ft | 518 kts | 355° |
| 2026-05-08 00:08 | 60.14644 | -77.02248 | 34607 ft | 518 kts | 354° |
| 2026-05-08 00:08 | 60.21786 | -77.03672 | 34605 ft | 518 kts | 355° |
| 2026-05-08 00:09 | 60.28949 | -77.04957 | 34603 ft | 518 kts | 356° |
| 2026-05-08 00:09 | 60.36151 | -77.06195 | 34599 ft | 518 kts | 356° |
| 2026-05-08 00:10 | 60.43304 | -77.07424 | 34597 ft | 517 kts | 356° |
| 2026-05-08 00:10 | 60.50499 | -77.08671 | 34596 ft | 518 kts | 356° |
| 2026-05-08 00:11 | 60.57694 | -77.09929 | 34597 ft | 518 kts | 356° |
| 2026-05-08 00:11 | 60.64843 | -77.11184 | 34596 ft | 518 kts | 356° |
| 2026-05-08 00:12 | 60.72037 | -77.12454 | 34589 ft | 518 kts | 355° |
| 2026-05-08 00:12 | 60.79187 | -77.13721 | 34592 ft | 518 kts | 356° |
| 2026-05-08 00:13 | 60.86357 | -77.14995 | 34591 ft | 518 kts | 356° |
| 2026-05-08 00:13 | 60.93547 | -77.16281 | 34587 ft | 518 kts | 356° |
| 2026-05-08 00:14 | 61.00762 | -77.17578 | 34589 ft | 519 kts | 356° |
| 2026-05-08 00:14 | 61.07929 | -77.18872 | 34589 ft | 519 kts | 356° |
| 2026-05-08 00:15 | 61.15110 | -77.20174 | 34587 ft | 519 kts | 356° |
| 2026-05-08 00:15 | 61.21152 | -77.21274 | 34583 ft | 519 kts | 356° |
| 2026-05-08 00:16 | 61.28305 | -77.22582 | 34580 ft | 519 kts | 356° |
| 2026-05-08 00:16 | 61.35520 | -77.23906 | 34581 ft | 519 kts | 356° |
| 2026-05-08 00:17 | 61.42690 | -77.25227 | 34578 ft | 518 kts | 356° |
| 2026-05-08 00:17 | 61.49886 | -77.26564 | 34576 ft | 518 kts | 356° |
| 2026-05-08 00:18 | 61.57045 | -77.27897 | 34575 ft | 517 kts | 356° |
| 2026-05-08 00:18 | 61.64228 | -77.29239 | 34573 ft | 517 kts | 356° |
| 2026-05-08 00:19 | 61.71401 | -77.30586 | 34573 ft | 517 kts | 356° |
| 2026-05-08 00:19 | 61.78543 | -77.31938 | 34572 ft | 517 kts | 356° |
| 2026-05-08 00:20 | 61.85683 | -77.33291 | 34567 ft | 517 kts | 356° |
| 2026-05-08 00:20 | 61.92876 | -77.34662 | 34569 ft | 517 kts | 356° |
| 2026-05-08 00:21 | 62.00010 | -77.36027 | 34566 ft | 517 kts | 356° |
| 2026-05-08 00:21 | 62.07200 | -77.37409 | 34563 ft | 517 kts | 356° |
| 2026-05-08 00:22 | 62.14341 | -77.38792 | 34560 ft | 517 kts | 356° |
| 2026-05-08 00:22 | 62.21515 | -77.40184 | 34562 ft | 517 kts | 356° |
| 2026-05-08 00:23 | 62.28646 | -77.41577 | 34558 ft | 517 kts | 356° |
| 2026-05-08 00:23 | 62.35830 | -77.42987 | 34553 ft | 517 kts | 356° |
| 2026-05-08 00:24 | 62.42989 | -77.44395 | 34550 ft | 516 kts | 356° |
| 2026-05-08 00:24 | 62.50108 | -77.45806 | 34553 ft | 515 kts | 356° |
| 2026-05-08 00:25 | 62.57257 | -77.47227 | 34548 ft | 514 kts | 356° |
| 2026-05-08 00:25 | 62.64343 | -77.48644 | 34549 ft | 513 kts | 356° |
| 2026-05-08 00:26 | 62.71472 | -77.50077 | 34545 ft | 513 kts | 356° |
| 2026-05-08 00:26 | 62.78609 | -77.51517 | 34547 ft | 513 kts | 356° |
| 2026-05-08 00:27 | 62.85700 | -77.52955 | 34551 ft | 513 kts | 356° |
| 2026-05-08 00:27 | 62.92794 | -77.54401 | 34550 ft | 513 kts | 356° |
| 2026-05-08 00:28 | 62.99923 | -77.55861 | 34552 ft | 513 kts | 356° |
| 2026-05-08 00:28 | 63.07014 | -77.57321 | 34550 ft | 513 kts | 356° |
| 2026-05-08 00:29 | 63.14155 | -77.58798 | 34550 ft | 513 kts | 356° |
| 2026-05-08 00:29 | 63.21250 | -77.60272 | 34551 ft | 513 kts | 356° |
| 2026-05-08 00:30 | 63.28333 | -77.61752 | 34550 ft | 513 kts | 356° |
| 2026-05-08 00:30 | 63.35464 | -77.63248 | 34550 ft | 512 kts | 356° |
| 2026-05-08 00:31 | 63.42529 | -77.64738 | 34554 ft | 512 kts | 356° |
| 2026-05-08 00:31 | 63.49638 | -77.66246 | 34554 ft | 512 kts | 356° |
| 2026-05-08 00:32 | 63.56709 | -77.67753 | 34554 ft | 512 kts | 356° |
| 2026-05-08 00:32 | 63.63827 | -77.69277 | 34559 ft | 512 kts | 356° |
| 2026-05-08 00:33 | 63.70922 | -77.70804 | 34561 ft | 512 kts | 356° |
| 2026-05-08 00:33 | 63.77991 | -77.72334 | 34565 ft | 512 kts | 356° |
| 2026-05-08 00:34 | 63.85060 | -77.73870 | 34568 ft | 511 kts | 356° |
| 2026-05-08 00:34 | 63.92170 | -77.75424 | 34571 ft | 511 kts | 356° |
| 2026-05-08 00:35 | 63.99227 | -77.76974 | 34576 ft | 511 kts | 356° |
| 2026-05-08 00:35 | 64.06330 | -77.78542 | 34579 ft | 511 kts | 356° |
| 2026-05-08 00:36 | 64.13420 | -77.80114 | 34582 ft | 511 kts | 356° |
| 2026-05-08 00:36 | 64.20478 | -77.81686 | 34590 ft | 511 kts | 356° |
| 2026-05-08 00:37 | 64.27527 | -77.83266 | 34591 ft | 511 kts | 356° |
| 2026-05-08 00:38 | 64.38159 | -77.85665 | 34598 ft | 510 kts | 356° |
| 2026-05-08 00:38 | 64.45189 | -77.87262 | 34597 ft | 510 kts | 356° |
| 2026-05-08 00:39 | 64.52276 | -77.88879 | 34604 ft | 510 kts | 356° |
| 2026-05-08 00:39 | 64.59352 | -77.90501 | 34607 ft | 510 kts | 356° |
| 2026-05-08 00:40 | 64.66375 | -77.92121 | 34610 ft | 509 kts | 356° |
| 2026-05-08 00:40 | 64.73407 | -77.93751 | 34617 ft | 509 kts | 356° |
| 2026-05-08 00:41 | 64.80483 | -77.95402 | 34623 ft | 509 kts | 356° |
| 2026-05-08 00:41 | 64.87500 | -77.97046 | 34625 ft | 509 kts | 357° |
| 2026-05-08 00:42 | 64.94515 | -77.98698 | 34626 ft | 508 kts | 357° |
| 2026-05-08 00:42 | 65.01570 | -78.00362 | 34630 ft | 508 kts | 357° |
| 2026-05-08 00:43 | 65.08626 | -78.01607 | 34633 ft | 507 kts | 359° |
| 2026-05-08 00:43 | 65.15643 | -78.02628 | 34639 ft | 506 kts | 359° |
| 2026-05-08 00:44 | 65.22686 | -78.03710 | 34648 ft | 506 kts | 359° |
| 2026-05-08 00:44 | 65.29686 | -78.04851 | 34647 ft | 506 kts | 359° |
| 2026-05-08 00:45 | 65.36695 | -78.06019 | 34649 ft | 506 kts | 359° |
| 2026-05-08 00:45 | 65.43743 | -78.07200 | 34652 ft | 506 kts | 359° |
| 2026-05-08 00:46 | 65.50747 | -78.08377 | 34662 ft | 506 kts | 359° |
| 2026-05-08 00:46 | 65.57794 | -78.09567 | 34666 ft | 506 kts | 359° |
| 2026-05-08 00:47 | 65.64795 | -78.10754 | 34667 ft | 506 kts | 359° |
| 2026-05-08 00:47 | 65.71789 | -78.11947 | 34672 ft | 506 kts | 359° |
| 2026-05-08 00:48 | 65.78819 | -78.13154 | 34672 ft | 505 kts | 359° |
| 2026-05-08 00:48 | 65.85845 | -78.14366 | 34677 ft | 505 kts | 359° |
| 2026-05-08 00:49 | 65.92826 | -78.15577 | 34685 ft | 505 kts | 359° |
| 2026-05-08 00:49 | 65.99810 | -78.16795 | 34689 ft | 504 kts | 359° |
| 2026-05-08 00:50 | 66.06826 | -78.18025 | 34691 ft | 504 kts | 359° |
| 2026-05-08 00:50 | 66.13821 | -78.19259 | 34695 ft | 504 kts | 359° |
| 2026-05-08 00:51 | 66.20835 | -78.20503 | 34700 ft | 504 kts | 359° |
| 2026-05-08 00:51 | 66.27840 | -78.21752 | 34706 ft | 504 kts | 359° |
| 2026-05-08 00:52 | 66.34808 | -78.23002 | 34710 ft | 503 kts | 359° |
| 2026-05-08 00:52 | 66.41810 | -78.24265 | 34720 ft | 503 kts | 359° |
| 2026-05-08 00:53 | 66.48773 | -78.25527 | 34718 ft | 503 kts | 359° |
| 2026-05-08 00:53 | 66.55722 | -78.26794 | 34724 ft | 502 kts | 360° |
| 2026-05-08 00:54 | 66.62707 | -78.28075 | 34732 ft | 502 kts | 360° |
| 2026-05-08 00:54 | 66.69689 | -78.29363 | 34738 ft | 502 kts | 360° |
| 2026-05-08 00:55 | 66.76623 | -78.30649 | 34739 ft | 501 kts | 360° |
| 2026-05-08 00:55 | 66.83591 | -78.31949 | 34746 ft | 501 kts | 0° |
| 2026-05-08 00:56 | 66.90539 | -78.33252 | 34748 ft | 500 kts | 0° |
| 2026-05-08 00:56 | 66.97461 | -78.34558 | 34752 ft | 500 kts | 0° |
| 2026-05-08 00:57 | 67.04416 | -78.35877 | 34759 ft | 499 kts | 0° |
| 2026-05-08 00:57 | 67.11321 | -78.37194 | 34765 ft | 499 kts | 0° |
| 2026-05-08 00:58 | 67.18257 | -78.38526 | 34769 ft | 499 kts | 0° |
| 2026-05-08 00:58 | 67.25152 | -78.39857 | 34774 ft | 498 kts | 1° |
| 2026-05-08 00:59 | 67.32051 | -78.41196 | 34781 ft | 498 kts | 1° |
| 2026-05-08 00:59 | 67.38992 | -78.42552 | 34786 ft | 497 kts | 1° |
| 2026-05-08 01:00 | 67.45865 | -78.43902 | 34792 ft | 497 kts | 1° |
| 2026-05-08 01:00 | 67.52772 | -78.45267 | 34798 ft | 497 kts | 1° |
| 2026-05-08 01:01 | 67.59625 | -78.46629 | 34799 ft | 496 kts | 1° |
| 2026-05-08 01:01 | 67.66522 | -78.48008 | 34803 ft | 496 kts | 1° |
| 2026-05-08 01:02 | 67.73393 | -78.49390 | 34806 ft | 495 kts | 2° |
| 2026-05-08 01:02 | 67.79121 | -78.50547 | 34809 ft | 495 kts | 2° |
| 2026-05-08 01:03 | 67.85965 | -78.51939 | 34823 ft | 494 kts | 2° |
| 2026-05-08 01:03 | 67.92846 | -78.53347 | 34822 ft | 493 kts | 2° |
| 2026-05-08 01:04 | 67.99662 | -78.54749 | 34826 ft | 492 kts | 2° |
| 2026-05-08 01:04 | 68.06460 | -78.56153 | 34832 ft | 491 kts | 2° |
| 2026-05-08 01:05 | 68.13295 | -78.57574 | 34838 ft | 490 kts | 3° |
| 2026-05-08 01:05 | 68.20049 | -78.58991 | 34845 ft | 488 kts | 3° |
| 2026-05-08 01:06 | 68.26838 | -78.60426 | 34853 ft | 487 kts | 3° |
| 2026-05-08 01:06 | 68.33558 | -78.61849 | 34856 ft | 486 kts | 3° |
| 2026-05-08 01:07 | 68.40296 | -78.63282 | 34858 ft | 484 kts | 3° |
| 2026-05-08 01:07 | 68.46990 | -78.64715 | 34865 ft | 483 kts | 3° |
| 2026-05-08 01:08 | 68.53697 | -78.66161 | 34876 ft | 481 kts | 3° |
| 2026-05-08 01:08 | 68.60336 | -78.67601 | 34873 ft | 480 kts | 3° |
| 2026-05-08 01:09 | 68.67000 | -78.69053 | 34884 ft | 479 kts | 3° |
| 2026-05-08 01:09 | 68.73654 | -78.70512 | 34881 ft | 478 kts | 3° |
| 2026-05-08 01:10 | 68.80256 | -78.71969 | 34893 ft | 477 kts | 3° |
| 2026-05-08 01:10 | 68.86885 | -78.73439 | 34894 ft | 476 kts | 2° |
| 2026-05-08 01:11 | 68.93451 | -78.74906 | 34898 ft | 476 kts | 2° |
| 2026-05-08 01:11 | 69.00065 | -78.76393 | 34902 ft | 475 kts | 2° |
| 2026-05-08 01:12 | 69.06632 | -78.77876 | 34907 ft | 475 kts | 2° |
| 2026-05-08 01:12 | 69.13236 | -78.79377 | 34911 ft | 475 kts | 2° |
| 2026-05-08 01:13 | 69.19798 | -78.80880 | 34915 ft | 475 kts | 2° |
| 2026-05-08 01:13 | 69.26400 | -78.82401 | 34924 ft | 475 kts | 2° |
| 2026-05-08 01:14 | 69.32959 | -78.83921 | 34923 ft | 475 kts | 2° |
| 2026-05-08 01:14 | 69.39578 | -78.85463 | 34932 ft | 475 kts | 1° |
| 2026-05-08 01:15 | 69.46134 | -78.87002 | 34935 ft | 475 kts | 1° |
| 2026-05-08 01:15 | 69.52737 | -78.88560 | 34940 ft | 475 kts | 1° |
| 2026-05-08 01:16 | 69.59309 | -78.90120 | 34945 ft | 475 kts | 1° |
| 2026-05-08 01:16 | 69.65913 | -78.91697 | 34952 ft | 475 kts | 1° |
| 2026-05-08 01:17 | 69.72481 | -78.93277 | 34950 ft | 475 kts | 1° |
| 2026-05-08 01:17 | 69.79065 | -78.94870 | 34954 ft | 475 kts | 0° |
| 2026-05-08 01:18 | 69.85658 | -78.96475 | 34954 ft | 474 kts | 0° |
| 2026-05-08 01:18 | 69.92262 | -78.98093 | 34963 ft | 474 kts | 0° |
| 2026-05-08 01:19 | 69.98817 | -78.99620 | 34965 ft | 472 kts | 3° |
| 2026-05-08 01:19 | 70.05316 | -78.99187 | 34969 ft | 468 kts | 7° |
| 2026-05-08 01:20 | 70.11845 | -78.98261 | 34970 ft | 467 kts | 7° |
| 2026-05-08 01:20 | 70.18314 | -78.97237 | 34975 ft | 467 kts | 7° |
| 2026-05-08 01:21 | 70.24818 | -78.96207 | 34979 ft | 467 kts | 7° |
| 2026-05-08 01:21 | 70.31300 | -78.95191 | 34982 ft | 467 kts | 7° |
| 2026-05-08 01:22 | 70.37804 | -78.94172 | 34988 ft | 467 kts | 7° |
| 2026-05-08 01:22 | 70.44264 | -78.93155 | 34987 ft | 467 kts | 7° |
| 2026-05-08 01:23 | 70.50770 | -78.92123 | 34995 ft | 467 kts | 7° |
| 2026-05-08 01:23 | 70.57240 | -78.91088 | 35004 ft | 467 kts | 7° |
| 2026-05-08 01:24 | 70.63750 | -78.90042 | 35007 ft | 467 kts | 6° |
| 2026-05-08 01:24 | 70.70222 | -78.88995 | 35012 ft | 468 kts | 6° |
| 2026-05-08 01:25 | 70.76738 | -78.87934 | 35017 ft | 468 kts | 6° |
| 2026-05-08 01:25 | 70.83253 | -78.86867 | 35019 ft | 469 kts | 6° |
| 2026-05-08 01:26 | 70.89767 | -78.85792 | 35024 ft | 469 kts | 6° |
| 2026-05-08 01:26 | 70.96262 | -78.84713 | 35027 ft | 469 kts | 6° |
| 2026-05-08 01:27 | 71.02802 | -78.83620 | 35030 ft | 469 kts | 6° |
| 2026-05-08 01:27 | 71.09336 | -78.82520 | 35033 ft | 470 kts | 5° |
| 2026-05-08 01:28 | 71.15868 | -78.81414 | 35035 ft | 470 kts | 5° |
| 2026-05-08 01:28 | 71.22376 | -78.80305 | 35038 ft | 470 kts | 5° |
| 2026-05-08 01:29 | 71.28918 | -78.79181 | 35042 ft | 470 kts | 5° |
| 2026-05-08 01:29 | 71.35432 | -78.78055 | 35043 ft | 470 kts | 5° |
| 2026-05-08 01:30 | 71.41944 | -78.76924 | 35046 ft | 470 kts | 5° |
| 2026-05-08 01:30 | 71.48479 | -78.75779 | 35053 ft | 469 kts | 5° |
| 2026-05-08 01:31 | 71.54976 | -78.74632 | 35062 ft | 469 kts | 5° |
| 2026-05-08 01:31 | 71.61516 | -78.73472 | 35065 ft | 469 kts | 4° |
| 2026-05-08 01:32 | 71.68001 | -78.72313 | 35068 ft | 469 kts | 4° |
| 2026-05-08 01:32 | 71.74528 | -78.71137 | 35075 ft | 468 kts | 4° |
| 2026-05-08 01:33 | 71.81013 | -78.69963 | 35079 ft | 468 kts | 4° |
| 2026-05-08 01:33 | 71.87537 | -78.68772 | 35082 ft | 468 kts | 4° |
| 2026-05-08 01:34 | 71.94010 | -78.67583 | 35086 ft | 468 kts | 4° |
| 2026-05-08 01:34 | 72.00527 | -78.66377 | 35093 ft | 468 kts | 4° |
| 2026-05-08 01:35 | 72.07005 | -78.65171 | 35093 ft | 467 kts | 4° |
| 2026-05-08 01:35 | 72.13504 | -78.63951 | 35097 ft | 467 kts | 4° |
| 2026-05-08 01:36 | 72.19966 | -78.62729 | 35095 ft | 466 kts | 4° |
| 2026-05-08 01:36 | 72.26458 | -78.61495 | 35096 ft | 466 kts | 3° |
| 2026-05-08 01:37 | 72.32900 | -78.60260 | 35098 ft | 466 kts | 3° |
| 2026-05-08 01:37 | 72.39355 | -78.59014 | 35097 ft | 465 kts | 3° |
| 2026-05-08 01:38 | 72.45833 | -78.57755 | 35102 ft | 465 kts | 3° |
| 2026-05-08 01:38 | 72.52266 | -78.56495 | 35102 ft | 464 kts | 3° |
| 2026-05-08 01:39 | 72.58727 | -78.55220 | 35103 ft | 464 kts | 3° |
| 2026-05-08 01:39 | 72.65156 | -78.53943 | 35104 ft | 464 kts | 3° |
| 2026-05-08 01:40 | 72.71620 | -78.52649 | 35102 ft | 464 kts | 3° |
| 2026-05-08 01:40 | 72.78025 | -78.51359 | 35103 ft | 463 kts | 2° |
| 2026-05-08 01:41 | 72.84474 | -78.50050 | 35106 ft | 463 kts | 2° |
| 2026-05-08 01:41 | 72.90881 | -78.48740 | 35104 ft | 463 kts | 2° |
| 2026-05-08 01:42 | 72.97330 | -78.47412 | 35105 ft | 463 kts | 2° |
| 2026-05-08 01:42 | 73.03727 | -78.46085 | 35109 ft | 463 kts | 2° |
| 2026-05-08 01:43 | 73.10169 | -78.44738 | 35111 ft | 463 kts | 2° |
| 2026-05-08 01:43 | 73.16573 | -78.43389 | 35114 ft | 462 kts | 2° |
| 2026-05-08 01:44 | 73.23018 | -78.42022 | 35120 ft | 462 kts | 2° |
| 2026-05-08 01:44 | 73.29410 | -78.40656 | 35123 ft | 462 kts | 2° |
| 2026-05-08 01:45 | 73.35848 | -78.39269 | 35134 ft | 463 kts | 2° |
| 2026-05-08 01:45 | 73.42293 | -78.37871 | 35141 ft | 463 kts | 2° |
| 2026-05-08 01:46 | 73.48714 | -78.36466 | 35148 ft | 463 kts | 2° |
| 2026-05-08 01:46 | 73.55124 | -78.35054 | 35152 ft | 463 kts | 2° |
| 2026-05-08 01:47 | 73.61567 | -78.33624 | 35161 ft | 463 kts | 2° |
| 2026-05-08 01:47 | 73.67967 | -78.32192 | 35167 ft | 463 kts | 2° |
| 2026-05-08 01:48 | 73.77608 | -78.30017 | 35181 ft | 463 kts | 2° |
| 2026-05-08 01:48 | 73.84030 | -78.28552 | 35183 ft | 464 kts | 2° |
| 2026-05-08 01:49 | 73.90478 | -78.27069 | 35193 ft | 464 kts | 2° |
| 2026-05-08 01:49 | 73.96906 | -78.25581 | 35201 ft | 464 kts | 2° |
| 2026-05-08 01:50 | 74.03379 | -78.24071 | 35209 ft | 465 kts | 2° |
| 2026-05-08 01:50 | 74.09819 | -78.22556 | 35212 ft | 466 kts | 2° |
| 2026-05-08 01:51 | 74.16317 | -78.21016 | 35219 ft | 466 kts | 2° |
| 2026-05-08 01:51 | 74.22781 | -78.19471 | 35224 ft | 467 kts | 2° |
| 2026-05-08 01:52 | 74.28184 | -78.18170 | 35231 ft | 467 kts | 2° |
| 2026-05-08 01:52 | 74.35759 | -78.16332 | 35234 ft | 468 kts | 2° |
| 2026-05-08 01:53 | 74.41173 | -78.15007 | 35238 ft | 468 kts | 2° |
| 2026-05-08 01:53 | 74.47660 | -78.13408 | 35240 ft | 469 kts | 2° |
| 2026-05-08 01:54 | 74.54189 | -78.11785 | 35240 ft | 469 kts | 2° |
| 2026-05-08 01:54 | 74.60727 | -78.10146 | 35245 ft | 470 kts | 2° |
| 2026-05-08 01:55 | 74.67227 | -78.08504 | 35248 ft | 470 kts | 2° |
| 2026-05-08 01:55 | 74.73737 | -78.06845 | 35251 ft | 471 kts | 2° |
| 2026-05-08 01:56 | 74.80309 | -78.05155 | 35252 ft | 471 kts | 1° |
| 2026-05-08 01:56 | 74.86827 | -78.03466 | 35260 ft | 471 kts | 1° |
| 2026-05-08 01:57 | 74.93353 | -78.01760 | 35260 ft | 471 kts | 1° |
| 2026-05-08 01:57 | 74.99923 | -78.00453 | 35260 ft | 470 kts | 356° |
| 2026-05-08 01:58 | 75.06416 | -78.01738 | 35265 ft | 469 kts | 354° |
| 2026-05-08 01:58 | 75.12929 | -78.03428 | 35263 ft | 470 kts | 354° |
| 2026-05-08 01:59 | 75.19457 | -78.05246 | 35266 ft | 470 kts | 353° |
| 2026-05-08 01:59 | 75.25998 | -78.07080 | 35266 ft | 470 kts | 353° |
| 2026-05-08 02:00 | 75.32492 | -78.08899 | 35269 ft | 470 kts | 353° |
| 2026-05-08 02:00 | 75.39034 | -78.10739 | 35261 ft | 470 kts | 353° |
| 2026-05-08 02:01 | 75.45564 | -78.12590 | 35274 ft | 470 kts | 353° |
| 2026-05-08 02:01 | 75.52057 | -78.14449 | 35272 ft | 470 kts | 353° |
| 2026-05-08 02:02 | 75.58565 | -78.16329 | 35282 ft | 470 kts | 353° |
| 2026-05-08 02:02 | 75.65096 | -78.18232 | 35281 ft | 470 kts | 353° |
| 2026-05-08 02:03 | 75.71599 | -78.20144 | 35279 ft | 470 kts | 353° |
| 2026-05-08 02:03 | 75.78137 | -78.22084 | 35277 ft | 470 kts | 353° |
| 2026-05-08 02:04 | 75.84635 | -78.24028 | 35276 ft | 470 kts | 353° |
| 2026-05-08 02:04 | 75.91136 | -78.25993 | 35279 ft | 470 kts | 353° |
| 2026-05-08 02:05 | 75.97671 | -78.27984 | 35283 ft | 469 kts | 353° |
| 2026-05-08 02:05 | 76.04163 | -78.29981 | 35284 ft | 469 kts | 352° |
| 2026-05-08 02:06 | 76.10700 | -78.32010 | 35282 ft | 469 kts | 352° |
| 2026-05-08 02:06 | 76.17189 | -78.34043 | 35283 ft | 469 kts | 352° |
| 2026-05-08 02:07 | 76.23721 | -78.36109 | 35283 ft | 469 kts | 352° |
| 2026-05-08 02:07 | 76.30238 | -78.38189 | 35280 ft | 469 kts | 352° |
| 2026-05-08 02:08 | 76.36721 | -78.40278 | 35286 ft | 469 kts | 352° |
| 2026-05-08 02:08 | 76.43214 | -78.42388 | 35283 ft | 469 kts | 352° |
| 2026-05-08 02:09 | 76.49741 | -78.44530 | 35288 ft | 469 kts | 352° |
| 2026-05-08 02:09 | 76.56221 | -78.46679 | 35291 ft | 468 kts | 352° |
| 2026-05-08 02:10 | 76.62734 | -78.48857 | 35294 ft | 468 kts | 352° |
| 2026-05-08 02:10 | 76.69191 | -78.51035 | 35293 ft | 468 kts | 352° |
| 2026-05-08 02:11 | 76.75710 | -78.53260 | 35296 ft | 468 kts | 351° |
| 2026-05-08 02:11 | 76.82185 | -78.55491 | 35303 ft | 468 kts | 351° |
| 2026-05-08 02:12 | 76.88700 | -78.57759 | 35300 ft | 468 kts | 351° |
| 2026-05-08 02:12 | 76.95165 | -78.60026 | 35307 ft | 467 kts | 351° |
| 2026-05-08 02:13 | 77.01667 | -78.62331 | 35303 ft | 467 kts | 351° |
| 2026-05-08 02:13 | 77.08125 | -78.64645 | 35305 ft | 467 kts | 351° |
| 2026-05-08 02:14 | 77.14612 | -78.66992 | 35304 ft | 467 kts | 351° |
| 2026-05-08 02:14 | 77.21108 | -78.69365 | 35309 ft | 467 kts | 351° |
| 2026-05-08 02:15 | 77.27557 | -78.71744 | 35305 ft | 466 kts | 351° |
| 2026-05-08 02:15 | 77.34017 | -78.74152 | 35308 ft | 467 kts | 351° |
| 2026-05-08 02:16 | 77.40500 | -78.76589 | 35302 ft | 466 kts | 351° |
| 2026-05-08 02:16 | 77.46931 | -78.79036 | 35303 ft | 466 kts | 351° |
| 2026-05-08 02:17 | 77.53413 | -78.81529 | 35302 ft | 466 kts | 351° |
| 2026-05-08 02:17 | 77.59842 | -78.84025 | 35301 ft | 465 kts | 351° |
| 2026-05-08 02:18 | 77.66297 | -78.86559 | 35298 ft | 465 kts | 350° |
| 2026-05-08 02:18 | 77.72727 | -78.89108 | 35294 ft | 465 kts | 350° |
| 2026-05-08 02:19 | 77.79150 | -78.91675 | 35291 ft | 464 kts | 350° |
| 2026-05-08 02:19 | 77.85613 | -78.94294 | 35296 ft | 464 kts | 350° |
| 2026-05-08 02:20 | 77.92032 | -78.96913 | 35295 ft | 464 kts | 350° |
| 2026-05-08 02:20 | 77.98476 | -78.99577 | 35295 ft | 464 kts | 350° |
| 2026-05-08 02:21 | 78.04925 | -79.02269 | 35288 ft | 464 kts | 350° |
| 2026-05-08 02:21 | 78.11338 | -79.04971 | 35287 ft | 464 kts | 350° |
| 2026-05-08 02:22 | 78.17780 | -79.07727 | 35290 ft | 464 kts | 350° |
| 2026-05-08 02:22 | 78.24219 | -79.10500 | 35286 ft | 464 kts | 350° |
| 2026-05-08 02:23 | 78.30627 | -79.13285 | 35287 ft | 464 kts | 349° |
| 2026-05-08 02:23 | 78.37071 | -79.16118 | 35294 ft | 464 kts | 349° |
| 2026-05-08 02:24 | 78.43473 | -79.18974 | 35279 ft | 464 kts | 349° |
| 2026-05-08 02:24 | 78.49891 | -79.21870 | 35279 ft | 464 kts | 349° |
| 2026-05-08 02:25 | 78.56340 | -79.24810 | 35280 ft | 464 kts | 349° |
| 2026-05-08 02:25 | 78.62790 | -79.27779 | 35279 ft | 465 kts | 349° |
| 2026-05-08 02:26 | 78.69209 | -79.30762 | 35282 ft | 465 kts | 349° |
| 2026-05-08 02:26 | 78.75642 | -79.33800 | 35290 ft | 465 kts | 349° |
| 2026-05-08 02:27 | 78.82113 | -79.36882 | 35292 ft | 466 kts | 349° |
| 2026-05-08 02:27 | 78.88546 | -79.39978 | 35291 ft | 466 kts | 349° |
| 2026-05-08 02:28 | 78.95017 | -79.43126 | 35300 ft | 466 kts | 349° |
| 2026-05-08 02:28 | 79.01462 | -79.46311 | 35302 ft | 467 kts | 349° |
| 2026-05-08 02:29 | 79.07913 | -79.49538 | 35305 ft | 467 kts | 349° |
| 2026-05-08 02:29 | 79.14420 | -79.52826 | 35308 ft | 467 kts | 349° |
| 2026-05-08 02:30 | 79.20871 | -79.56120 | 35315 ft | 468 kts | 349° |
| 2026-05-08 02:30 | 79.27376 | -79.59485 | 35317 ft | 468 kts | 349° |
| 2026-05-08 02:31 | 79.33841 | -79.62863 | 35313 ft | 469 kts | 349° |
| 2026-05-08 02:31 | 79.40355 | -79.66308 | 35312 ft | 469 kts | 349° |
| 2026-05-08 02:32 | 79.46827 | -79.69775 | 35309 ft | 469 kts | 349° |
| 2026-05-08 02:32 | 79.53355 | -79.73314 | 35298 ft | 470 kts | 349° |
| 2026-05-08 02:33 | 79.59821 | -79.76866 | 35303 ft | 470 kts | 349° |
| 2026-05-08 02:33 | 79.66348 | -79.80500 | 35301 ft | 470 kts | 349° |
| 2026-05-08 02:34 | 79.72857 | -79.84166 | 35300 ft | 471 kts | 349° |
| 2026-05-08 02:34 | 79.79363 | -79.87879 | 35293 ft | 471 kts | 349° |
| 2026-05-08 02:35 | 79.85903 | -79.91655 | 35290 ft | 471 kts | 349° |
| 2026-05-08 02:35 | 79.92414 | -79.95466 | 35289 ft | 472 kts | 349° |
| 2026-05-08 02:36 | 79.98970 | -79.99348 | 35290 ft | 472 kts | 349° |
| 2026-05-08 02:36 | 80.05482 | -80.03260 | 35294 ft | 472 kts | 349° |
| 2026-05-08 02:37 | 80.12012 | -80.07242 | 35295 ft | 473 kts | 349° |
| 2026-05-08 02:37 | 80.18573 | -80.11292 | 35297 ft | 473 kts | 349° |
| 2026-05-08 02:38 | 80.25100 | -80.15373 | 35301 ft | 473 kts | 349° |
| 2026-05-08 02:38 | 80.31672 | -80.19541 | 35304 ft | 474 kts | 349° |
| 2026-05-08 02:39 | 80.38212 | -80.23745 | 35312 ft | 474 kts | 349° |
| 2026-05-08 02:39 | 80.44786 | -80.28028 | 35317 ft | 474 kts | 349° |
| 2026-05-08 02:40 | 80.51324 | -80.32350 | 35319 ft | 475 kts | 349° |
| 2026-05-08 02:40 | 80.57914 | -80.36761 | 35323 ft | 475 kts | 349° |
| 2026-05-08 02:41 | 80.64451 | -80.41198 | 35326 ft | 475 kts | 349° |
| 2026-05-08 02:41 | 80.71042 | -80.45736 | 35324 ft | 475 kts | 349° |
| 2026-05-08 02:42 | 80.77590 | -80.50312 | 35325 ft | 476 kts | 349° |
| 2026-05-08 02:42 | 80.83069 | -80.54184 | 35326 ft | 476 kts | 349° |
| 2026-05-08 02:43 | 80.90752 | -80.59697 | 35327 ft | 477 kts | 349° |
| 2026-05-08 02:43 | 80.96244 | -80.63691 | 35327 ft | 477 kts | 349° |
| 2026-05-08 02:44 | 81.02871 | -80.68584 | 35327 ft | 477 kts | 349° |
| 2026-05-08 02:44 | 81.09456 | -80.73519 | 35326 ft | 478 kts | 349° |
| 2026-05-08 02:45 | 81.16035 | -80.78522 | 35319 ft | 478 kts | 349° |
| 2026-05-08 02:45 | 81.22657 | -80.83626 | 35309 ft | 478 kts | 349° |
| 2026-05-08 02:46 | 81.29243 | -80.88782 | 35312 ft | 479 kts | 349° |
| 2026-05-08 02:46 | 81.35868 | -80.94037 | 35306 ft | 479 kts | 349° |
| 2026-05-08 02:47 | 81.42507 | -80.99398 | 35305 ft | 479 kts | 349° |
| 2026-05-08 02:47 | 81.49125 | -81.04830 | 35302 ft | 479 kts | 349° |
| 2026-05-08 02:48 | 81.55734 | -81.10334 | 35303 ft | 480 kts | 349° |
| 2026-05-08 02:48 | 81.62389 | -81.15967 | 35303 ft | 480 kts | 349° |
| 2026-05-08 02:49 | 81.68983 | -81.21629 | 35301 ft | 480 kts | 349° |
| 2026-05-08 02:49 | 81.75627 | -81.27427 | 35308 ft | 480 kts | 349° |
| 2026-05-08 02:50 | 81.82243 | -81.33306 | 35319 ft | 481 kts | 349° |
| 2026-05-08 02:50 | 81.88890 | -81.39297 | 35324 ft | 481 kts | 349° |
| 2026-05-08 02:51 | 81.95571 | -81.45428 | 35331 ft | 482 kts | 349° |
| 2026-05-08 02:51 | 82.02187 | -81.51603 | 35330 ft | 482 kts | 349° |
| 2026-05-08 02:52 | 82.08861 | -81.57921 | 35332 ft | 483 kts | 349° |
| 2026-05-08 02:52 | 82.15507 | -81.64322 | 35332 ft | 483 kts | 349° |
| 2026-05-08 02:53 | 82.22178 | -81.70864 | 35334 ft | 483 kts | 349° |
| 2026-05-08 02:53 | 82.28857 | -81.77523 | 35332 ft | 484 kts | 349° |
| 2026-05-08 02:54 | 82.35496 | -81.84265 | 35332 ft | 484 kts | 349° |
| 2026-05-08 02:54 | 82.42152 | -81.91143 | 35340 ft | 484 kts | 349° |
| 2026-05-08 02:55 | 82.52208 | -82.01757 | 35340 ft | 485 kts | 349° |
| 2026-05-08 02:56 | 82.58873 | -82.08954 | 35343 ft | 485 kts | 349° |
| 2026-05-08 02:56 | 82.65572 | -82.16319 | 35345 ft | 486 kts | 349° |
| 2026-05-08 02:57 | 82.72243 | -82.23791 | 35346 ft | 486 kts | 349° |
| 2026-05-08 02:57 | 82.78961 | -82.31456 | 35345 ft | 487 kts | 349° |
| 2026-05-08 02:58 | 82.85652 | -82.39231 | 35352 ft | 487 kts | 349° |
| 2026-05-08 02:58 | 82.92368 | -82.47187 | 35353 ft | 487 kts | 349° |
| 2026-05-08 02:59 | 82.99056 | -82.55260 | 35356 ft | 488 kts | 349° |
| 2026-05-08 02:59 | 83.05783 | -82.63540 | 35360 ft | 488 kts | 349° |
| 2026-05-08 03:00 | 83.12477 | -82.71942 | 35361 ft | 488 kts | 349° |
| 2026-05-08 03:00 | 83.19218 | -82.80569 | 35364 ft | 488 kts | 348° |
| 2026-05-08 03:01 | 83.25919 | -82.89319 | 35370 ft | 489 kts | 348° |
| 2026-05-08 03:01 | 83.32626 | -82.98254 | 35374 ft | 489 kts | 348° |
| 2026-05-08 03:02 | 83.39376 | -83.07429 | 35372 ft | 489 kts | 348° |
| 2026-05-08 03:02 | 83.46070 | -83.16711 | 35378 ft | 489 kts | 348° |
| 2026-05-08 03:03 | 83.52819 | -83.26273 | 35382 ft | 490 kts | 348° |
| 2026-05-08 03:03 | 83.59510 | -83.35953 | 35379 ft | 490 kts | 348° |
| 2026-05-08 03:04 | 83.66254 | -83.45918 | 35384 ft | 490 kts | 348° |
| 2026-05-08 03:04 | 83.73005 | -83.56108 | 35384 ft | 491 kts | 348° |
| 2026-05-08 03:05 | 83.79721 | -83.66465 | 35385 ft | 491 kts | 348° |
| 2026-05-08 03:05 | 83.86431 | -83.77043 | 35388 ft | 491 kts | 348° |
| 2026-05-08 03:06 | 83.93205 | -83.87962 | 35385 ft | 492 kts | 348° |
| 2026-05-08 03:06 | 83.99937 | -83.99062 | 35389 ft | 492 kts | 348° |
| 2026-05-08 03:07 | 84.06656 | -84.10393 | 35393 ft | 492 kts | 348° |
| 2026-05-08 03:07 | 84.13425 | -84.22075 | 35391 ft | 492 kts | 348° |
| 2026-05-08 03:08 | 84.20142 | -84.33941 | 35394 ft | 493 kts | 348° |
| 2026-05-08 03:08 | 84.26906 | -84.46173 | 35398 ft | 493 kts | 348° |
| 2026-05-08 03:09 | 84.33629 | -84.58624 | 35395 ft | 494 kts | 348° |
| 2026-05-08 03:09 | 84.40395 | -84.71462 | 35393 ft | 494 kts | 348° |
| 2026-05-08 03:10 | 84.47135 | -84.84564 | 35396 ft | 494 kts | 348° |
| 2026-05-08 03:10 | 84.53916 | -84.98080 | 35397 ft | 494 kts | 347° |
| 2026-05-08 03:11 | 84.60656 | -85.11856 | 35397 ft | 495 kts | 347° |
| 2026-05-08 03:11 | 84.67399 | -85.25992 | 35398 ft | 495 kts | 347° |
| 2026-05-08 03:12 | 84.74161 | -85.40537 | 35396 ft | 495 kts | 347° |
| 2026-05-08 03:12 | 84.80911 | -85.55445 | 35394 ft | 495 kts | 347° |
| 2026-05-08 03:13 | 84.87646 | -85.70716 | 35398 ft | 496 kts | 347° |
| 2026-05-08 03:13 | 84.94408 | -85.86462 | 35400 ft | 496 kts | 347° |
| 2026-05-08 03:14 | 85.01150 | -86.02596 | 35397 ft | 496 kts | 347° |
| 2026-05-08 03:14 | 85.07906 | -86.19399 | 35399 ft | 496 kts | 346° |
| 2026-05-08 03:15 | 85.14638 | -86.36732 | 35403 ft | 496 kts | 346° |
| 2026-05-08 03:15 | 85.21398 | -86.54614 | 35402 ft | 497 kts | 346° |
| 2026-05-08 03:16 | 85.28124 | -86.72899 | 35400 ft | 497 kts | 346° |
| 2026-05-08 03:16 | 85.34894 | -86.91837 | 35399 ft | 497 kts | 346° |
| 2026-05-08 03:17 | 85.41597 | -87.11158 | 35399 ft | 497 kts | 346° |
| 2026-05-08 03:17 | 85.48323 | -87.31131 | 35400 ft | 497 kts | 346° |
| 2026-05-08 03:18 | 85.55071 | -87.51797 | 35400 ft | 498 kts | 346° |
| 2026-05-08 03:18 | 85.61819 | -87.73117 | 35400 ft | 498 kts | 345° |
| 2026-05-08 03:19 | 85.68501 | -87.94901 | 35400 ft | 498 kts | 345° |
| 2026-05-08 03:19 | 85.75241 | -88.17592 | 35400 ft | 498 kts | 345° |
| 2026-05-08 03:20 | 85.81932 | -88.40861 | 35402 ft | 498 kts | 345° |
| 2026-05-08 03:20 | 85.88659 | -88.65042 | 35390 ft | 498 kts | 345° |
| 2026-05-08 03:21 | 85.95335 | -88.89861 | 35399 ft | 498 kts | 344° |
| 2026-05-08 03:21 | 86.02047 | -89.15687 | 35391 ft | 498 kts | 344° |
| 2026-05-08 03:22 | 86.08704 | -89.42200 | 35398 ft | 498 kts | 344° |
| 2026-05-08 03:22 | 86.15362 | -89.69672 | 35402 ft | 498 kts | 343° |
| 2026-05-08 03:23 | 86.22044 | -89.98251 | 35400 ft | 498 kts | 343° |
| 2026-05-08 03:23 | 86.28669 | -90.27648 | 35400 ft | 498 kts | 343° |
| 2026-05-08 03:24 | 86.35328 | -90.58314 | 35403 ft | 498 kts | 343° |
| 2026-05-08 03:24 | 86.41941 | -90.89945 | 35401 ft | 498 kts | 342° |
| 2026-05-08 03:25 | 86.48573 | -91.22911 | 35396 ft | 498 kts | 342° |
| 2026-05-08 03:25 | 86.55212 | -91.57243 | 35399 ft | 498 kts | 342° |
| 2026-05-08 03:26 | 86.61782 | -91.92612 | 35401 ft | 498 kts | 341° |
| 2026-05-08 03:26 | 86.68375 | -92.29590 | 35405 ft | 498 kts | 341° |
| 2026-05-08 03:27 | 86.74966 | -92.68141 | 35401 ft | 498 kts | 341° |
| 2026-05-08 03:27 | 86.81496 | -93.07996 | 35399 ft | 497 kts | 340° |
| 2026-05-08 03:28 | 86.88041 | -93.49711 | 35402 ft | 497 kts | 340° |
| 2026-05-08 03:28 | 86.94531 | -93.92957 | 35409 ft | 498 kts | 340° |
| 2026-05-08 03:29 | 87.01011 | -94.38124 | 35407 ft | 497 kts | 339° |
| 2026-05-08 03:29 | 87.07500 | -94.85500 | 35406 ft | 497 kts | 339° |
| 2026-05-08 03:30 | 87.17148 | -95.60255 | 35408 ft | 497 kts | 338° |
| 2026-05-08 03:31 | 87.29983 | -96.68660 | 35410 ft | 497 kts | 337° |
| 2026-05-08 03:32 | 87.39499 | -97.56538 | 35414 ft | 497 kts | 336° |
| 2026-05-08 03:32 | 87.45807 | -98.18766 | 35413 ft | 497 kts | 335° |
| 2026-05-08 03:33 | 87.51046 | -98.73082 | 35421 ft | 496 kts | 335° |
| 2026-05-08 03:33 | 87.58336 | -99.53014 | 35417 ft | 496 kts | 334° |
| 2026-05-08 03:34 | 87.63528 | -100.13286 | 35419 ft | 496 kts | 334° |
| 2026-05-08 03:34 | 87.69724 | -100.89205 | 35416 ft | 496 kts | 333° |
| 2026-05-08 03:35 | 87.75820 | -101.68520 | 35424 ft | 496 kts | 332° |
| 2026-05-08 03:35 | 87.81934 | -102.53156 | 35425 ft | 496 kts | 331° |
| 2026-05-08 03:36 | 87.87932 | -103.41649 | 35421 ft | 496 kts | 330° |
| 2026-05-08 03:36 | 87.93910 | -104.35788 | 35427 ft | 496 kts | 329° |
| 2026-05-08 03:37 | 87.99857 | -105.35999 | 35429 ft | 496 kts | 328° |
| 2026-05-08 03:37 | 88.05677 | -106.41139 | 35432 ft | 496 kts | 327° |
| 2026-05-08 03:38 | 88.11473 | -107.53627 | 35425 ft | 496 kts | 326° |
| 2026-05-08 03:38 | 88.17204 | -108.73458 | 35424 ft | 496 kts | 325° |
| 2026-05-08 03:39 | 88.22803 | -109.99847 | 35426 ft | 495 kts | 324° |
| 2026-05-08 03:39 | 88.28333 | -111.34977 | 35425 ft | 495 kts | 322° |
| 2026-05-08 03:40 | 88.33773 | -112.79329 | 35443 ft | 495 kts | 321° |
| 2026-05-08 03:40 | 88.39071 | -114.32398 | 35426 ft | 495 kts | 320° |
| 2026-05-08 03:41 | 88.44253 | -115.95961 | 35427 ft | 495 kts | 318° |
| 2026-05-08 03:41 | 88.49293 | -117.70348 | 35432 ft | 495 kts | 316° |
| 2026-05-08 03:42 | 88.54200 | -119.57255 | 35425 ft | 495 kts | 314° |
| 2026-05-08 03:42 | 88.58942 | -121.56915 | 35442 ft | 494 kts | 312° |
| 2026-05-08 03:43 | 88.63475 | -123.68865 | 35428 ft | 495 kts | 310° |
| 2026-05-08 03:43 | 88.67828 | -125.96018 | 35443 ft | 494 kts | 308° |
| 2026-05-08 03:44 | 88.71963 | -128.38470 | 35425 ft | 494 kts | 306° |
| 2026-05-08 03:44 | 88.75807 | -130.93220 | 35426 ft | 494 kts | 303° |
| 2026-05-08 03:45 | 88.78552 | -132.96854 | 35420 ft | 494 kts | 301° |
| 2026-05-08 03:45 | 88.80343 | -134.41895 | 35419 ft | 494 kts | 300° |
| 2026-05-08 03:46 | 88.83073 | -136.85530 | 35428 ft | 494 kts | 297° |
| 2026-05-08 03:46 | 88.86043 | -139.91973 | 35429 ft | 493 kts | 294° |
| 2026-05-08 03:47 | 88.89125 | -143.03031 | 35443 ft | 493 kts | 296° |
| 2026-05-08 03:47 | 88.91932 | -146.33268 | 35424 ft | 493 kts | 292° |
| 2026-05-08 03:48 | 88.94367 | -149.77379 | 35441 ft | 493 kts | 289° |
| 2026-05-08 03:48 | 88.96420 | -153.32764 | 35419 ft | 493 kts | 285° |
| 2026-05-08 03:49 | 88.98083 | -157.05383 | 35441 ft | 492 kts | 282° |
| 2026-05-08 03:49 | 88.99290 | -160.84559 | 35422 ft | 492 kts | 278° |
| 2026-05-08 03:50 | 89.00045 | -164.73212 | 35438 ft | 492 kts | 274° |
| 2026-05-08 03:50 | 89.00332 | -168.63331 | 35421 ft | 492 kts | 270° |
| 2026-05-08 03:51 | 89.00251 | -172.56741 | 35436 ft | 492 kts | 268° |
| 2026-05-08 03:51 | 88.99862 | -176.47726 | 35414 ft | 492 kts | 264° |
| 2026-05-08 03:52 | 88.98988 | 179.64967 | 35435 ft | 491 kts | 260° |
| 2026-05-08 03:52 | 88.97637 | 175.88307 | 35417 ft | 491 kts | 256° |
| 2026-05-08 03:53 | 88.95844 | 172.22484 | 35415 ft | 491 kts | 252° |
| 2026-05-08 03:53 | 88.93716 | 168.81478 | 35427 ft | 491 kts | 249° |
| 2026-05-08 03:54 | 88.91141 | 165.44749 | 35409 ft | 491 kts | 246° |
| 2026-05-08 03:54 | 88.88209 | 162.24963 | 35426 ft | 491 kts | 242° |
| 2026-05-08 03:55 | 88.84937 | 159.21620 | 35407 ft | 491 kts | 239° |
| 2026-05-08 03:55 | 88.81355 | 156.35331 | 35425 ft | 490 kts | 237° |
| 2026-05-08 03:56 | 88.77552 | 153.70378 | 35398 ft | 490 kts | 234° |
| 2026-05-08 03:56 | 88.73459 | 151.19193 | 35417 ft | 489 kts | 231° |
| 2026-05-08 03:57 | 88.69147 | 148.84619 | 35398 ft | 489 kts | 229° |
| 2026-05-08 03:57 | 88.64655 | 146.66421 | 35417 ft | 488 kts | 227° |
| 2026-05-08 03:58 | 88.59937 | 144.60750 | 35399 ft | 488 kts | 225° |
| 2026-05-08 03:58 | 88.55072 | 142.69468 | 35395 ft | 488 kts | 223° |
| 2026-05-08 03:59 | 88.50103 | 140.92331 | 35395 ft | 487 kts | 221° |
| 2026-05-08 03:59 | 88.44983 | 139.26156 | 35388 ft | 487 kts | 219° |
| 2026-05-08 04:00 | 88.39879 | 137.74618 | 35385 ft | 487 kts | 218° |
| 2026-05-08 04:00 | 88.37398 | 137.05464 | 35384 ft | 487 kts | 217° |
| 2026-05-08 04:01 | 88.34625 | 136.31332 | 35386 ft | 487 kts | 216° |
| 2026-05-08 04:01 | 88.31556 | 135.52915 | 35385 ft | 486 kts | 215° |
| 2026-05-08 04:02 | 88.27344 | 134.50649 | 35379 ft | 486 kts | 214° |
| 2026-05-08 04:02 | 88.21786 | 133.25208 | 35383 ft | 486 kts | 213° |
| 2026-05-08 04:03 | 88.16114 | 132.06971 | 35385 ft | 486 kts | 212° |
| 2026-05-08 04:03 | 88.07524 | 130.43522 | 35372 ft | 486 kts | 210° |
| 2026-05-08 04:04 | 88.01717 | 129.42379 | 35364 ft | 485 kts | 209° |
| 2026-05-08 04:04 | 87.95844 | 128.46887 | 35360 ft | 485 kts | 208° |
| 2026-05-08 04:05 | 87.89955 | 127.57299 | 35361 ft | 485 kts | 207° |
| 2026-05-08 04:05 | 87.84000 | 126.72384 | 35355 ft | 485 kts | 206° |
| 2026-05-08 04:06 | 87.77966 | 125.91563 | 35351 ft | 485 kts | 206° |
| 2026-05-08 04:06 | 87.71942 | 125.15662 | 35348 ft | 485 kts | 205° |
| 2026-05-08 04:07 | 87.65838 | 124.43171 | 35352 ft | 485 kts | 204° |
| 2026-05-08 04:07 | 87.59732 | 123.74729 | 35342 ft | 485 kts | 204° |
| 2026-05-08 04:08 | 87.53588 | 123.09651 | 35337 ft | 484 kts | 203° |
| 2026-05-08 04:08 | 87.47419 | 122.47777 | 35336 ft | 484 kts | 202° |
| 2026-05-08 04:09 | 87.41221 | 121.88846 | 35337 ft | 484 kts | 201° |
| 2026-05-08 04:09 | 87.34990 | 121.32600 | 35328 ft | 484 kts | 201° |
| 2026-05-08 04:10 | 87.28721 | 120.78837 | 35326 ft | 484 kts | 200° |
| 2026-05-08 04:10 | 87.22453 | 120.27665 | 35319 ft | 484 kts | 200° |
| 2026-05-08 04:11 | 87.16168 | 119.78794 | 35317 ft | 484 kts | 199° |
| 2026-05-08 04:11 | 87.09829 | 119.31807 | 35314 ft | 484 kts | 199° |
| 2026-05-08 04:12 | 87.03523 | 118.87186 | 35311 ft | 484 kts | 198° |
| 2026-05-08 04:12 | 86.97160 | 118.44136 | 35307 ft | 484 kts | 198° |
| 2026-05-08 04:13 | 86.90815 | 118.03080 | 35302 ft | 484 kts | 197° |
| 2026-05-08 04:13 | 86.84429 | 117.63528 | 35297 ft | 484 kts | 197° |
| 2026-05-08 04:14 | 86.78046 | 117.25642 | 35288 ft | 484 kts | 197° |
| 2026-05-08 04:14 | 86.71633 | 116.89126 | 35284 ft | 484 kts | 196° |
| 2026-05-08 04:15 | 86.65215 | 116.54045 | 35284 ft | 484 kts | 196° |
| 2026-05-08 04:15 | 86.58775 | 116.20239 | 35280 ft | 484 kts | 195° |
| 2026-05-08 04:16 | 86.52365 | 115.87891 | 35271 ft | 484 kts | 195° |
| 2026-05-08 04:16 | 86.45907 | 115.56548 | 35270 ft | 484 kts | 194° |
| 2026-05-08 04:17 | 86.39415 | 115.26196 | 35261 ft | 484 kts | 194° |
| 2026-05-08 04:17 | 86.32956 | 114.97114 | 35258 ft | 485 kts | 194° |
| 2026-05-08 04:18 | 86.26464 | 114.68930 | 35255 ft | 485 kts | 193° |
| 2026-05-08 04:18 | 86.19946 | 114.41635 | 35250 ft | 485 kts | 193° |
| 2026-05-08 04:19 | 86.13458 | 114.15412 | 35243 ft | 485 kts | 193° |
| 2026-05-08 04:19 | 86.06917 | 113.89894 | 35240 ft | 485 kts | 193° |
| 2026-05-08 04:20 | 86.00377 | 113.65232 | 35230 ft | 486 kts | 192° |
| 2026-05-08 04:20 | 85.93841 | 113.41401 | 35226 ft | 486 kts | 192° |
| 2026-05-08 04:21 | 85.88388 | 113.22125 | 35221 ft | 486 kts | 192° |
| 2026-05-08 04:21 | 85.81815 | 112.99557 | 35215 ft | 486 kts | 192° |
| 2026-05-08 04:22 | 85.74164 | 112.74203 | 35213 ft | 486 kts | 191° |
| 2026-05-08 04:22 | 85.68679 | 112.56595 | 35205 ft | 486 kts | 191° |
| 2026-05-08 04:23 | 85.62091 | 112.36037 | 35202 ft | 487 kts | 191° |
| 2026-05-08 04:23 | 85.55471 | 112.16013 | 35197 ft | 487 kts | 191° |
| 2026-05-08 04:24 | 85.48882 | 111.96687 | 35185 ft | 487 kts | 190° |
| 2026-05-08 04:24 | 85.42294 | 111.77921 | 35183 ft | 487 kts | 190° |
| 2026-05-08 04:25 | 85.35656 | 111.59560 | 35179 ft | 487 kts | 190° |
| 2026-05-08 04:25 | 85.29017 | 111.41728 | 35172 ft | 488 kts | 190° |
| 2026-05-08 04:26 | 85.22400 | 111.24463 | 35166 ft | 488 kts | 189° |
| 2026-05-08 04:26 | 85.15749 | 111.07602 | 35160 ft | 488 kts | 189° |
| 2026-05-08 04:27 | 85.09136 | 110.91296 | 35153 ft | 488 kts | 189° |
| 2026-05-08 04:27 | 85.02464 | 110.75286 | 35147 ft | 488 kts | 189° |
| 2026-05-08 04:28 | 84.95820 | 110.59776 | 35141 ft | 488 kts | 189° |
| 2026-05-08 04:28 | 84.89180 | 110.44681 | 35129 ft | 489 kts | 189° |
| 2026-05-08 04:29 | 84.82494 | 110.29878 | 35125 ft | 489 kts | 188° |
| 2026-05-08 04:29 | 84.75832 | 110.15513 | 35120 ft | 489 kts | 188° |
| 2026-05-08 04:30 | 84.69141 | 110.01454 | 35111 ft | 490 kts | 188° |
| 2026-05-08 04:30 | 84.62430 | 109.87711 | 35105 ft | 490 kts | 188° |
| 2026-05-08 04:31 | 84.55745 | 109.74358 | 35098 ft | 490 kts | 188° |
| 2026-05-08 04:31 | 84.49019 | 109.61257 | 35090 ft | 491 kts | 188° |
| 2026-05-08 04:32 | 84.42274 | 109.48443 | 35090 ft | 491 kts | 188° |
| 2026-05-08 04:32 | 84.35589 | 109.36050 | 35079 ft | 491 kts | 187° |
| 2026-05-08 04:33 | 84.28845 | 109.23844 | 35075 ft | 491 kts | 187° |
| 2026-05-08 04:33 | 84.22087 | 109.11901 | 35066 ft | 492 kts | 187° |
| 2026-05-08 04:34 | 84.15371 | 109.00306 | 35058 ft | 492 kts | 187° |
| 2026-05-08 04:34 | 84.08607 | 108.88901 | 35052 ft | 492 kts | 187° |
| 2026-05-08 04:35 | 84.01867 | 108.77795 | 35047 ft | 493 kts | 187° |
| 2026-05-08 04:35 | 83.95127 | 108.66939 | 35038 ft | 493 kts | 187° |
| 2026-05-08 04:36 | 83.88338 | 108.56247 | 35031 ft | 493 kts | 187° |
| 2026-05-08 04:36 | 83.81548 | 108.45791 | 35029 ft | 494 kts | 187° |
| 2026-05-08 04:37 | 83.74794 | 108.35619 | 35015 ft | 494 kts | 187° |
| 2026-05-08 04:37 | 83.67988 | 108.25589 | 35012 ft | 494 kts | 186° |
| 2026-05-08 04:38 | 83.61223 | 108.15832 | 35003 ft | 495 kts | 186° |
| 2026-05-08 04:38 | 83.54401 | 108.06205 | 35003 ft | 495 kts | 186° |
| 2026-05-08 04:39 | 83.47606 | 107.96817 | 34992 ft | 495 kts | 186° |
| 2026-05-08 04:39 | 83.40766 | 107.87563 | 34986 ft | 496 kts | 186° |
| 2026-05-08 04:40 | 83.33961 | 107.78544 | 34978 ft | 496 kts | 186° |
| 2026-05-08 04:40 | 83.27160 | 107.69714 | 34972 ft | 496 kts | 186° |
| 2026-05-08 04:41 | 83.20301 | 107.60991 | 34965 ft | 497 kts | 186° |
| 2026-05-08 04:41 | 83.13486 | 107.52498 | 34956 ft | 497 kts | 186° |
| 2026-05-08 04:42 | 83.06625 | 107.44116 | 34952 ft | 497 kts | 186° |
| 2026-05-08 04:42 | 82.99786 | 107.35925 | 34942 ft | 498 kts | 186° |
| 2026-05-08 04:43 | 82.92917 | 107.27857 | 34935 ft | 498 kts | 186° |
| 2026-05-08 04:43 | 82.86070 | 107.19972 | 34932 ft | 498 kts | 186° |
| 2026-05-08 04:44 | 82.79176 | 107.12182 | 34924 ft | 499 kts | 186° |
| 2026-05-08 04:44 | 82.72317 | 107.04582 | 34916 ft | 499 kts | 186° |
| 2026-05-08 04:45 | 82.65465 | 106.97131 | 34909 ft | 499 kts | 186° |
| 2026-05-08 04:45 | 82.58547 | 106.89748 | 34900 ft | 500 kts | 186° |
| 2026-05-08 04:46 | 82.51689 | 106.82566 | 34895 ft | 500 kts | 185° |
| 2026-05-08 04:46 | 82.44768 | 106.75453 | 34899 ft | 500 kts | 185° |
| 2026-05-08 04:47 | 82.37890 | 106.68511 | 34877 ft | 500 kts | 185° |
| 2026-05-08 04:47 | 82.30971 | 106.61649 | 34871 ft | 501 kts | 185° |
| 2026-05-08 04:48 | 82.24048 | 106.54907 | 34861 ft | 501 kts | 185° |
| 2026-05-08 04:48 | 82.17164 | 106.48322 | 34860 ft | 501 kts | 185° |
| 2026-05-08 04:49 | 82.10251 | 106.41824 | 34851 ft | 502 kts | 185° |
| 2026-05-08 04:49 | 82.03353 | 106.35439 | 34841 ft | 491 kts | 185° |
| 2026-05-08 04:50 | 81.96649 | 106.29343 | 34841 ft | 485 kts | 185° |
| 2026-05-08 04:50 | 81.89970 | 106.23392 | 34837 ft | 485 kts | 185° |
| 2026-05-08 04:51 | 81.83259 | 106.17510 | 34829 ft | 485 kts | 185° |
| 2026-05-08 04:51 | 81.76552 | 106.11719 | 34821 ft | 485 kts | 185° |
| 2026-05-08 04:52 | 81.69882 | 106.06049 | 34817 ft | 486 kts | 185° |
| 2026-05-08 04:52 | 81.63176 | 106.00441 | 34812 ft | 486 kts | 185° |
| 2026-05-08 04:53 | 81.56432 | 105.94893 | 34807 ft | 486 kts | 185° |
| 2026-05-08 04:53 | 81.49745 | 105.89476 | 34799 ft | 486 kts | 185° |
| 2026-05-08 04:54 | 81.42999 | 105.84098 | 34793 ft | 487 kts | 185° |
| 2026-05-08 04:54 | 81.36292 | 105.78833 | 34792 ft | 487 kts | 185° |
| 2026-05-08 04:55 | 81.29535 | 105.73611 | 34777 ft | 487 kts | 185° |
| 2026-05-08 04:55 | 81.22818 | 105.68501 | 34775 ft | 487 kts | 185° |
| 2026-05-08 04:56 | 81.16094 | 105.63463 | 34770 ft | 488 kts | 185° |
| 2026-05-08 04:56 | 81.09327 | 105.58470 | 34765 ft | 488 kts | 185° |
| 2026-05-08 04:57 | 81.02605 | 105.53583 | 34768 ft | 488 kts | 185° |
| 2026-05-08 04:57 | 80.95875 | 105.48763 | 34759 ft | 488 kts | 185° |
| 2026-05-08 04:58 | 80.89123 | 105.44000 | 34748 ft | 488 kts | 185° |
| 2026-05-08 04:58 | 80.82357 | 105.39295 | 34744 ft | 488 kts | 185° |
| 2026-05-08 04:59 | 80.75621 | 105.34680 | 34740 ft | 488 kts | 185° |
| 2026-05-08 04:59 | 80.68848 | 105.30109 | 34735 ft | 489 kts | 185° |
| 2026-05-08 05:00 | 80.62094 | 105.25615 | 34731 ft | 489 kts | 185° |
| 2026-05-08 05:00 | 80.55316 | 105.21169 | 34727 ft | 489 kts | 185° |
| 2026-05-08 05:01 | 80.48572 | 105.16809 | 34724 ft | 489 kts | 185° |
| 2026-05-08 05:01 | 80.41820 | 105.12504 | 34717 ft | 489 kts | 185° |
| 2026-05-08 05:02 | 80.35023 | 105.08230 | 34717 ft | 489 kts | 185° |
| 2026-05-08 05:02 | 80.28277 | 105.04049 | 34714 ft | 489 kts | 185° |
| 2026-05-08 05:03 | 80.21492 | 104.99901 | 34711 ft | 489 kts | 185° |
| 2026-05-08 05:03 | 80.14732 | 104.95825 | 34710 ft | 490 kts | 185° |
| 2026-05-08 05:04 | 80.07955 | 104.91797 | 34706 ft | 490 kts | 185° |
| 2026-05-08 05:04 | 80.01162 | 104.87808 | 34705 ft | 490 kts | 185° |
| 2026-05-08 05:05 | 79.94411 | 104.83898 | 34704 ft | 490 kts | 185° |
| 2026-05-08 05:05 | 79.87609 | 104.80014 | 34698 ft | 490 kts | 185° |
| 2026-05-08 05:06 | 79.80795 | 104.76173 | 34697 ft | 490 kts | 185° |
| 2026-05-08 05:06 | 79.74034 | 104.72413 | 34692 ft | 490 kts | 185° |
| 2026-05-08 05:07 | 79.67233 | 104.68680 | 34693 ft | 490 kts | 185° |
| 2026-05-08 05:07 | 79.60425 | 104.64990 | 34687 ft | 491 kts | 185° |
| 2026-05-08 05:08 | 79.53647 | 104.61365 | 34690 ft | 491 kts | 185° |
| 2026-05-08 05:08 | 79.46874 | 104.57790 | 34691 ft | 491 kts | 185° |
| 2026-05-08 05:09 | 79.40055 | 104.54236 | 34689 ft | 491 kts | 185° |
| 2026-05-08 05:09 | 79.33280 | 104.50762 | 34690 ft | 491 kts | 184° |
| 2026-05-08 05:10 | 79.23059 | 104.46336 | 34685 ft | 491 kts | 184° |
| 2026-05-08 05:11 | 79.16273 | 104.43549 | 34686 ft | 491 kts | 184° |
| 2026-05-08 05:11 | 79.10561 | 104.41180 | 34685 ft | 491 kts | 184° |
| 2026-05-08 05:12 | 79.03764 | 104.38357 | 34684 ft | 491 kts | 184° |
| 2026-05-08 05:12 | 78.96971 | 104.35560 | 34681 ft | 491 kts | 184° |
| 2026-05-08 05:13 | 78.90154 | 104.32790 | 34676 ft | 491 kts | 184° |
| 2026-05-08 05:13 | 78.83366 | 104.30067 | 34674 ft | 491 kts | 184° |
| 2026-05-08 05:14 | 78.76535 | 104.27359 | 34667 ft | 490 kts | 184° |
| 2026-05-08 05:14 | 78.69756 | 104.24704 | 34661 ft | 490 kts | 184° |
| 2026-05-08 05:15 | 78.62945 | 104.22069 | 34657 ft | 490 kts | 184° |
| 2026-05-08 05:15 | 78.56174 | 104.19482 | 34652 ft | 489 kts | 184° |
| 2026-05-08 05:16 | 78.49382 | 104.16917 | 34644 ft | 489 kts | 184° |
| 2026-05-08 05:16 | 78.42595 | 104.14381 | 34638 ft | 488 kts | 184° |
| 2026-05-08 05:17 | 78.35844 | 104.11889 | 34631 ft | 488 kts | 184° |
| 2026-05-08 05:17 | 78.29065 | 104.09415 | 34621 ft | 488 kts | 184° |
| 2026-05-08 05:18 | 78.22310 | 104.06977 | 34619 ft | 488 kts | 184° |
| 2026-05-08 05:18 | 78.15553 | 104.04567 | 34619 ft | 488 kts | 184° |
| 2026-05-08 05:19 | 78.08806 | 104.02187 | 34615 ft | 487 kts | 184° |
| 2026-05-08 05:19 | 78.02019 | 103.99820 | 34614 ft | 487 kts | 184° |
| 2026-05-08 05:20 | 77.95281 | 103.97515 | 34609 ft | 487 kts | 184° |
| 2026-05-08 05:20 | 77.88521 | 103.95200 | 34611 ft | 487 kts | 184° |
| 2026-05-08 05:21 | 77.81750 | 103.92905 | 34605 ft | 486 kts | 184° |
| 2026-05-08 05:21 | 77.75027 | 103.90658 | 34603 ft | 486 kts | 184° |
| 2026-05-08 05:22 | 77.68252 | 103.88418 | 34599 ft | 486 kts | 184° |
| 2026-05-08 05:22 | 77.61536 | 103.86224 | 34594 ft | 486 kts | 184° |
| 2026-05-08 05:23 | 77.54767 | 103.84037 | 34592 ft | 486 kts | 184° |
| 2026-05-08 05:23 | 77.48050 | 103.81888 | 34590 ft | 486 kts | 184° |
| 2026-05-08 05:24 | 77.41292 | 103.79750 | 34580 ft | 486 kts | 184° |
| 2026-05-08 05:24 | 77.34526 | 103.77634 | 34580 ft | 486 kts | 184° |
| 2026-05-08 05:25 | 77.27814 | 103.75554 | 34574 ft | 486 kts | 184° |
| 2026-05-08 05:25 | 77.21058 | 103.73481 | 34573 ft | 486 kts | 184° |
| 2026-05-08 05:26 | 77.14291 | 103.71430 | 34570 ft | 486 kts | 184° |
| 2026-05-08 05:26 | 77.07570 | 103.69414 | 34565 ft | 486 kts | 184° |
| 2026-05-08 05:27 | 77.00801 | 103.67400 | 34560 ft | 486 kts | 184° |
| 2026-05-08 05:27 | 76.94086 | 103.65422 | 34553 ft | 486 kts | 184° |
| 2026-05-08 05:28 | 76.87322 | 103.63452 | 34547 ft | 485 kts | 184° |
| 2026-05-08 05:28 | 76.80614 | 103.61520 | 34545 ft | 485 kts | 184° |
| 2026-05-08 05:29 | 76.73884 | 103.59599 | 34539 ft | 485 kts | 184° |
| 2026-05-08 05:29 | 76.67145 | 103.57696 | 34535 ft | 484 kts | 185° |
| 2026-05-08 05:30 | 76.60435 | 103.55820 | 34529 ft | 484 kts | 185° |
| 2026-05-08 05:30 | 76.53737 | 103.53960 | 34524 ft | 484 kts | 185° |
| 2026-05-08 05:31 | 76.46996 | 103.52117 | 34515 ft | 484 kts | 185° |
| 2026-05-08 05:31 | 76.40288 | 103.50294 | 34505 ft | 484 kts | 185° |
| 2026-05-08 05:32 | 76.33540 | 103.48481 | 34501 ft | 484 kts | 185° |
| 2026-05-08 05:32 | 76.26821 | 103.46693 | 34490 ft | 484 kts | 185° |
| 2026-05-08 05:33 | 76.20090 | 103.44910 | 34488 ft | 484 kts | 185° |
| 2026-05-08 05:33 | 76.13387 | 103.43158 | 34485 ft | 484 kts | 185° |
| 2026-05-08 05:34 | 76.06667 | 103.41418 | 34478 ft | 485 kts | 185° |
| 2026-05-08 05:34 | 75.99927 | 103.39692 | 34473 ft | 485 kts | 185° |
| 2026-05-08 05:35 | 75.93204 | 103.37981 | 34470 ft | 485 kts | 185° |
| 2026-05-08 05:35 | 75.86478 | 103.36293 | 34460 ft | 485 kts | 185° |
| 2026-05-08 05:36 | 75.79735 | 103.34609 | 34460 ft | 485 kts | 185° |
| 2026-05-08 05:36 | 75.72969 | 103.32935 | 34454 ft | 486 kts | 185° |
| 2026-05-08 05:37 | 75.66253 | 103.31291 | 34450 ft | 486 kts | 185° |
| 2026-05-08 05:37 | 75.59485 | 103.29650 | 34449 ft | 486 kts | 185° |
| 2026-05-08 05:38 | 75.52753 | 103.28032 | 34446 ft | 486 kts | 185° |
| 2026-05-08 05:38 | 75.45985 | 103.26421 | 34442 ft | 485 kts | 185° |
| 2026-05-08 05:39 | 75.39222 | 103.24826 | 34437 ft | 485 kts | 185° |
| 2026-05-08 05:39 | 75.32509 | 103.23255 | 34431 ft | 485 kts | 185° |
| 2026-05-08 05:40 | 75.25781 | 103.21664 | 34427 ft | 485 kts | 185° |
| 2026-05-08 05:40 | 75.19036 | 103.19855 | 34425 ft | 485 kts | 185° |
| 2026-05-08 05:41 | 75.12282 | 103.18011 | 34418 ft | 485 kts | 185° |
| 2026-05-08 05:41 | 75.05577 | 103.16228 | 34410 ft | 485 kts | 185° |
| 2026-05-08 05:42 | 74.98813 | 103.14470 | 34405 ft | 485 kts | 185° |
| 2026-05-08 05:42 | 74.92100 | 103.12745 | 34396 ft | 485 kts | 185° |
| 2026-05-08 05:43 | 74.85393 | 103.11039 | 34387 ft | 484 kts | 185° |
| 2026-05-08 05:43 | 74.78659 | 103.09339 | 34377 ft | 483 kts | 185° |
| 2026-05-08 05:44 | 74.71975 | 103.07659 | 34371 ft | 482 kts | 185° |
| 2026-05-08 05:44 | 74.65308 | 103.05994 | 34363 ft | 481 kts | 185° |
| 2026-05-08 05:45 | 74.58603 | 103.04344 | 34358 ft | 481 kts | 185° |
| 2026-05-08 05:45 | 74.51914 | 103.02708 | 34348 ft | 480 kts | 185° |
| 2026-05-08 05:46 | 74.45276 | 103.01101 | 34341 ft | 480 kts | 185° |
| 2026-05-08 05:46 | 74.38605 | 102.99494 | 34331 ft | 480 kts | 185° |
| 2026-05-08 05:47 | 74.31965 | 102.97909 | 34318 ft | 479 kts | 185° |
| 2026-05-08 05:47 | 74.25336 | 102.96349 | 34314 ft | 478 kts | 185° |
| 2026-05-08 05:48 | 74.18679 | 102.94800 | 34296 ft | 478 kts | 185° |
| 2026-05-08 05:48 | 74.12045 | 102.93257 | 34290 ft | 478 kts | 185° |
| 2026-05-08 05:49 | 74.05399 | 102.91713 | 34277 ft | 478 kts | 185° |
| 2026-05-08 05:49 | 73.98794 | 102.90211 | 34266 ft | 477 kts | 185° |
| 2026-05-08 05:50 | 73.92145 | 102.88714 | 34255 ft | 478 kts | 185° |
| 2026-05-08 05:50 | 73.85533 | 102.87228 | 34240 ft | 478 kts | 185° |
| 2026-05-08 05:51 | 73.78855 | 102.85729 | 34228 ft | 478 kts | 185° |
| 2026-05-08 05:51 | 73.72235 | 102.84268 | 34214 ft | 479 kts | 185° |
| 2026-05-08 05:52 | 73.65596 | 102.82808 | 34200 ft | 479 kts | 185° |
| 2026-05-08 05:52 | 73.58901 | 102.81346 | 34184 ft | 480 kts | 185° |
| 2026-05-08 05:53 | 73.52255 | 102.79904 | 34167 ft | 480 kts | 185° |
| 2026-05-08 05:53 | 73.45565 | 102.78471 | 34153 ft | 481 kts | 185° |
| 2026-05-08 05:54 | 73.38890 | 102.77050 | 34140 ft | 481 kts | 185° |
| 2026-05-08 05:54 | 73.32225 | 102.75635 | 34123 ft | 482 kts | 185° |
| 2026-05-08 05:55 | 73.25523 | 102.74234 | 34106 ft | 482 kts | 184° |
| 2026-05-08 05:55 | 73.18843 | 102.72849 | 34088 ft | 483 kts | 184° |
| 2026-05-08 05:56 | 73.12145 | 102.71468 | 34070 ft | 483 kts | 184° |
| 2026-05-08 05:56 | 73.05414 | 102.70091 | 34051 ft | 483 kts | 185° |
| 2026-05-08 05:57 | 72.98723 | 102.68729 | 34037 ft | 483 kts | 184° |
| 2026-05-08 05:57 | 72.91978 | 102.67370 | 34020 ft | 483 kts | 184° |
| 2026-05-08 05:58 | 72.85271 | 102.66025 | 34005 ft | 483 kts | 184° |
| 2026-05-08 05:58 | 72.78568 | 102.64691 | 33985 ft | 483 kts | 184° |
| 2026-05-08 05:59 | 72.71883 | 102.63378 | 33974 ft | 483 kts | 184° |
| 2026-05-08 05:59 | 72.65157 | 102.62066 | 33957 ft | 482 kts | 184° |
| 2026-05-08 06:00 | 72.58476 | 102.60765 | 33942 ft | 482 kts | 184° |
| 2026-05-08 06:00 | 72.51789 | 102.59471 | 33925 ft | 482 kts | 184° |
| 2026-05-08 06:01 | 72.45073 | 102.58187 | 33910 ft | 482 kts | 184° |
| 2026-05-08 06:01 | 72.38404 | 102.56923 | 33895 ft | 482 kts | 184° |
| 2026-05-08 06:02 | 72.32806 | 102.55865 | 33879 ft | 482 kts | 184° |
| 2026-05-08 06:02 | 72.25004 | 102.54407 | 33866 ft | 482 kts | 184° |
| 2026-05-08 06:03 | 72.19440 | 102.53373 | 33857 ft | 482 kts | 184° |
| 2026-05-08 06:03 | 72.12723 | 102.52133 | 33836 ft | 482 kts | 184° |
| 2026-05-08 06:04 | 72.06023 | 102.50905 | 33822 ft | 483 kts | 184° |
| 2026-05-08 06:04 | 71.99337 | 102.49693 | 33809 ft | 483 kts | 184° |
| 2026-05-08 06:05 | 71.92595 | 102.50315 | 33794 ft | 484 kts | 176° |
| 2026-05-08 06:05 | 71.85873 | 102.52002 | 33785 ft | 484 kts | 175° |
| 2026-05-08 06:06 | 71.79177 | 102.53824 | 33772 ft | 485 kts | 175° |
| 2026-05-08 06:06 | 71.72454 | 102.55601 | 33761 ft | 487 kts | 176° |
| 2026-05-08 06:07 | 71.65688 | 102.57335 | 33750 ft | 488 kts | 176° |
| 2026-05-08 06:07 | 71.58892 | 102.59055 | 33744 ft | 490 kts | 175° |
| 2026-05-08 06:08 | 71.52105 | 102.60759 | 33742 ft | 491 kts | 175° |
| 2026-05-08 06:08 | 71.45255 | 102.62467 | 33738 ft | 492 kts | 175° |
| 2026-05-08 06:09 | 71.38461 | 102.64150 | 33740 ft | 492 kts | 176° |
| 2026-05-08 06:09 | 71.31606 | 102.65837 | 33735 ft | 492 kts | 176° |
| 2026-05-08 06:10 | 71.24792 | 102.67501 | 33735 ft | 492 kts | 176° |
| 2026-05-08 06:10 | 71.17940 | 102.69160 | 33738 ft | 492 kts | 176° |
| 2026-05-08 06:11 | 71.11126 | 102.70798 | 33740 ft | 493 kts | 176° |
| 2026-05-08 06:11 | 71.04273 | 102.72435 | 33742 ft | 493 kts | 176° |
| 2026-05-08 06:12 | 70.97458 | 102.74053 | 33742 ft | 494 kts | 176° |
| 2026-05-08 06:12 | 70.90600 | 102.75672 | 33741 ft | 494 kts | 176° |
| 2026-05-08 06:13 | 70.83774 | 102.77269 | 33745 ft | 494 kts | 176° |
| 2026-05-08 06:13 | 70.76893 | 102.78870 | 33748 ft | 494 kts | 177° |
| 2026-05-08 06:14 | 70.70063 | 102.80450 | 33749 ft | 494 kts | 177° |
| 2026-05-08 06:14 | 70.63189 | 102.82022 | 33754 ft | 494 kts | 177° |
| 2026-05-08 06:15 | 70.56303 | 102.83591 | 33762 ft | 494 kts | 177° |
| 2026-05-08 06:15 | 70.49470 | 102.85138 | 33767 ft | 494 kts | 177° |
| 2026-05-08 06:16 | 70.42599 | 102.86680 | 33778 ft | 494 kts | 178° |
| 2026-05-08 06:16 | 70.35730 | 102.88206 | 33786 ft | 494 kts | 178° |
| 2026-05-08 06:17 | 70.25475 | 102.90476 | 33805 ft | 494 kts | 178° |
| 2026-05-08 06:17 | 70.18653 | 102.91980 | 33813 ft | 494 kts | 178° |
| 2026-05-08 06:18 | 70.11761 | 102.93479 | 33824 ft | 493 kts | 178° |
| 2026-05-08 06:18 | 70.04952 | 102.94976 | 33840 ft | 493 kts | 178° |
| 2026-05-08 06:19 | 69.98096 | 102.96436 | 33845 ft | 492 kts | 178° |
| 2026-05-08 06:19 | 69.91268 | 102.97888 | 33857 ft | 492 kts | 178° |
| 2026-05-08 06:20 | 69.84450 | 102.99337 | 33867 ft | 492 kts | 178° |
| 2026-05-08 06:20 | 69.77602 | 103.00790 | 33875 ft | 491 kts | 178° |
| 2026-05-08 06:21 | 69.70814 | 103.02219 | 33881 ft | 491 kts | 178° |
| 2026-05-08 06:21 | 69.63986 | 103.03660 | 33892 ft | 490 kts | 179° |
| 2026-05-08 06:22 | 69.57214 | 103.05054 | 33899 ft | 490 kts | 179° |
| 2026-05-08 06:22 | 69.50389 | 103.06457 | 33906 ft | 490 kts | 179° |
| 2026-05-08 06:23 | 69.43595 | 103.07852 | 33907 ft | 490 kts | 179° |
| 2026-05-08 06:23 | 69.36775 | 103.09235 | 33918 ft | 490 kts | 179° |
| 2026-05-08 06:24 | 69.30003 | 103.10609 | 33926 ft | 490 kts | 179° |
| 2026-05-08 06:24 | 69.23174 | 103.12006 | 33938 ft | 490 kts | 179° |
| 2026-05-08 06:25 | 69.16385 | 103.13360 | 33950 ft | 490 kts | 179° |
| 2026-05-08 06:25 | 69.09595 | 103.14673 | 33953 ft | 490 kts | 179° |
| 2026-05-08 06:26 | 69.02779 | 103.15988 | 33957 ft | 490 kts | 179° |
| 2026-05-08 06:26 | 68.96013 | 103.17302 | 33971 ft | 489 kts | 179° |
| 2026-05-08 06:27 | 68.89202 | 103.18618 | 33978 ft | 488 kts | 179° |
| 2026-05-08 06:27 | 68.82420 | 103.19926 | 33990 ft | 488 kts | 179° |
| 2026-05-08 06:28 | 68.75678 | 103.21213 | 34000 ft | 487 kts | 180° |
| 2026-05-08 06:28 | 68.68889 | 103.22499 | 34011 ft | 487 kts | 180° |
| 2026-05-08 06:29 | 68.62135 | 103.23774 | 34020 ft | 487 kts | 180° |
| 2026-05-08 06:29 | 68.55368 | 103.25036 | 34031 ft | 487 kts | 180° |
| 2026-05-08 06:30 | 68.48629 | 103.26288 | 34044 ft | 487 kts | 180° |
| 2026-05-08 06:30 | 68.41881 | 103.27538 | 34054 ft | 487 kts | 180° |
| 2026-05-08 06:31 | 68.35114 | 103.28781 | 34062 ft | 487 kts | 180° |
| 2026-05-08 06:31 | 68.28348 | 103.30020 | 34075 ft | 488 kts | 180° |
| 2026-05-08 06:32 | 68.21560 | 103.31256 | 34086 ft | 488 kts | 180° |
| 2026-05-08 06:32 | 68.14813 | 103.32480 | 34099 ft | 488 kts | 180° |
| 2026-05-08 06:33 | 68.08009 | 103.33696 | 34109 ft | 489 kts | 180° |
| 2026-05-08 06:33 | 68.01250 | 103.34901 | 34120 ft | 489 kts | 180° |
| 2026-05-08 06:34 | 67.94432 | 103.36125 | 34128 ft | 489 kts | 180° |
| 2026-05-08 06:34 | 67.87683 | 103.37315 | 34141 ft | 489 kts | 181° |
| 2026-05-08 06:35 | 67.80865 | 103.38509 | 34153 ft | 489 kts | 180° |
| 2026-05-08 06:35 | 67.74062 | 103.39693 | 34161 ft | 489 kts | 180° |
| 2026-05-08 06:36 | 67.67291 | 103.40864 | 34168 ft | 489 kts | 180° |
| 2026-05-08 06:36 | 67.60510 | 103.42037 | 34179 ft | 489 kts | 181° |
| 2026-05-08 06:37 | 67.53691 | 103.43212 | 34185 ft | 489 kts | 181° |
| 2026-05-08 06:37 | 67.46923 | 103.44365 | 34199 ft | 489 kts | 181° |
| 2026-05-08 06:38 | 67.40123 | 103.45514 | 34207 ft | 488 kts | 181° |
| 2026-05-08 06:38 | 67.33345 | 103.46655 | 34214 ft | 488 kts | 181° |
| 2026-05-08 06:39 | 67.26554 | 103.47802 | 34225 ft | 488 kts | 181° |
| 2026-05-08 06:39 | 67.19792 | 103.48919 | 34242 ft | 488 kts | 181° |
| 2026-05-08 06:40 | 67.13017 | 103.50034 | 34241 ft | 487 kts | 181° |
| 2026-05-08 06:40 | 67.06290 | 103.51138 | 34253 ft | 487 kts | 181° |
| 2026-05-08 06:41 | 66.99503 | 103.52247 | 34258 ft | 487 kts | 181° |
| 2026-05-08 06:41 | 66.92766 | 103.53341 | 34270 ft | 487 kts | 181° |
| 2026-05-08 06:42 | 66.85998 | 103.54436 | 34281 ft | 487 kts | 181° |
| 2026-05-08 06:42 | 66.79228 | 103.55526 | 34289 ft | 486 kts | 181° |
| 2026-05-08 06:43 | 66.72454 | 103.56608 | 34301 ft | 486 kts | 181° |
| 2026-05-08 06:43 | 66.65717 | 103.57680 | 34313 ft | 486 kts | 181° |
| 2026-05-08 06:44 | 66.58989 | 103.58744 | 34321 ft | 486 kts | 181° |
| 2026-05-08 06:44 | 66.52221 | 103.59811 | 34331 ft | 486 kts | 182° |
| 2026-05-08 06:45 | 66.45510 | 103.60870 | 34335 ft | 485 kts | 182° |
| 2026-05-08 06:45 | 66.38761 | 103.61925 | 34350 ft | 485 kts | 182° |
| 2026-05-08 06:46 | 66.32001 | 103.62977 | 34366 ft | 485 kts | 182° |
| 2026-05-08 06:46 | 66.25300 | 103.64016 | 34370 ft | 484 kts | 182° |
| 2026-05-08 06:47 | 66.18557 | 103.65057 | 34375 ft | 484 kts | 182° |
| 2026-05-08 06:47 | 66.11875 | 103.66082 | 34383 ft | 483 kts | 182° |
| 2026-05-08 06:48 | 66.06281 | 103.66935 | 34388 ft | 483 kts | 182° |
| 2026-05-08 06:48 | 65.99568 | 103.67955 | 34395 ft | 482 kts | 182° |
| 2026-05-08 06:49 | 65.92904 | 103.68961 | 34399 ft | 481 kts | 182° |
| 2026-05-08 06:49 | 65.86191 | 103.69969 | 34412 ft | 480 kts | 182° |
| 2026-05-08 06:50 | 65.79571 | 103.70959 | 34417 ft | 479 kts | 182° |
| 2026-05-08 06:50 | 65.72915 | 103.71951 | 34419 ft | 478 kts | 182° |
| 2026-05-08 06:51 | 65.66260 | 103.72935 | 34429 ft | 477 kts | 183° |
| 2026-05-08 06:51 | 65.59654 | 103.73905 | 34434 ft | 477 kts | 183° |
| 2026-05-08 06:52 | 65.53064 | 103.74868 | 34440 ft | 476 kts | 183° |
| 2026-05-08 06:52 | 65.46436 | 103.75835 | 34440 ft | 476 kts | 183° |
| 2026-05-08 06:53 | 65.39849 | 103.76794 | 34447 ft | 475 kts | 183° |
| 2026-05-08 06:53 | 65.33235 | 103.77747 | 34453 ft | 475 kts | 183° |
| 2026-05-08 06:54 | 65.26664 | 103.78688 | 34457 ft | 474 kts | 183° |
| 2026-05-08 06:54 | 65.20059 | 103.79632 | 34459 ft | 474 kts | 183° |
| 2026-05-08 06:55 | 65.13452 | 103.80571 | 34470 ft | 474 kts | 184° |
| 2026-05-08 06:55 | 65.06890 | 103.81498 | 34474 ft | 473 kts | 184° |
| 2026-05-08 06:56 | 65.00313 | 103.82424 | 34474 ft | 473 kts | 184° |
| 2026-05-08 06:56 | 64.93781 | 103.83338 | 34475 ft | 472 kts | 184° |
| 2026-05-08 06:57 | 64.87197 | 103.84255 | 34481 ft | 472 kts | 184° |
| 2026-05-08 06:57 | 64.80634 | 103.85165 | 34481 ft | 471 kts | 184° |
| 2026-05-08 06:58 | 64.74114 | 103.86065 | 34484 ft | 471 kts | 184° |
| 2026-05-08 06:58 | 64.67578 | 103.86963 | 34485 ft | 471 kts | 184° |
| 2026-05-08 06:59 | 64.61059 | 103.87853 | 34496 ft | 470 kts | 184° |
| 2026-05-08 06:59 | 64.54545 | 103.88738 | 34491 ft | 469 kts | 184° |
| 2026-05-08 07:00 | 64.48008 | 103.89623 | 34494 ft | 469 kts | 184° |
| 2026-05-08 07:00 | 64.41480 | 103.90509 | 34494 ft | 468 kts | 184° |